<?xml version='1.0' encoding='UTF-8'?>
<gpx version="1.1" creator="https://www.komoot.de" xmlns="http://www.topografix.com/GPX/1/1" xmlns:xsi="http://www.w3.org/2001/XMLSchema-instance" xsi:schemaLocation="http://www.topografix.com/GPX/1/1 http://www.topografix.com/GPX/1/1/gpx.xsd">
  <metadata>
    <name>31_560NeuligBreitfeld</name>
    <author>
      <link href="https://www.komoot.de">
        <text>komoot</text>
        <type>text/html</type>
      </link>
    </author>
  </metadata>
  <trk>
    <name>31_560NeuligBreitfeld</name>
    <trkseg>
      <trkpt lat="47.540551" lon="7.871510">
        <ele>344.762556</ele>
        <time>2021-11-07T09:41:12.116Z</time>
      </trkpt>
      <trkpt lat="47.540463" lon="7.871584">
        <ele>344.762556</ele>
        <time>2021-11-07T09:41:14.573Z</time>
      </trkpt>
      <trkpt lat="47.540265" lon="7.871808">
        <ele>344.762556</ele>
        <time>2021-11-07T09:41:19.158Z</time>
      </trkpt>
      <trkpt lat="47.540216" lon="7.871851">
        <ele>344.762556</ele>
        <time>2021-11-07T09:41:20.513Z</time>
      </trkpt>
      <trkpt lat="47.540034" lon="7.871970">
        <ele>344.762556</ele>
        <time>2021-11-07T09:41:24.684Z</time>
      </trkpt>
      <trkpt lat="47.539930" lon="7.872041">
        <ele>344.762556</ele>
        <time>2021-11-07T09:41:26.642Z</time>
      </trkpt>
      <trkpt lat="47.539841" lon="7.872151">
        <ele>344.762556</ele>
        <time>2021-11-07T09:41:29.494Z</time>
      </trkpt>
      <trkpt lat="47.539678" lon="7.872430">
        <ele>344.974767</ele>
        <time>2021-11-07T09:41:34.112Z</time>
      </trkpt>
      <trkpt lat="47.539222" lon="7.873416">
        <ele>345.893279</ele>
        <time>2021-11-07T09:41:51.059Z</time>
      </trkpt>
      <trkpt lat="47.538278" lon="7.874319">
        <ele>347.170579</ele>
        <time>2021-11-07T09:42:10.712Z</time>
      </trkpt>
      <trkpt lat="47.537716" lon="7.874966">
        <ele>347.976517</ele>
        <time>2021-11-07T09:42:24.687Z</time>
      </trkpt>
      <trkpt lat="47.537261" lon="7.875237">
        <ele>348.531795</ele>
        <time>2021-11-07T09:42:34.204Z</time>
      </trkpt>
      <trkpt lat="47.537182" lon="7.875293">
        <ele>348.630961</ele>
        <time>2021-11-07T09:42:36.192Z</time>
      </trkpt>
      <trkpt lat="47.536921" lon="7.875537">
        <ele>349.250722</ele>
        <time>2021-11-07T09:42:42.160Z</time>
      </trkpt>
      <trkpt lat="47.536757" lon="7.875759">
        <ele>350.010772</ele>
        <time>2021-11-07T09:42:46.761Z</time>
      </trkpt>
      <trkpt lat="47.536632" lon="7.875912">
        <ele>350.565516</ele>
        <time>2021-11-07T09:42:49.929Z</time>
      </trkpt>
      <trkpt lat="47.536444" lon="7.876177">
        <ele>351.453355</ele>
        <time>2021-11-07T09:42:56.891Z</time>
      </trkpt>
      <trkpt lat="47.535851" lon="7.877319">
        <ele>354.780899</ele>
        <time>2021-11-07T09:43:28.205Z</time>
      </trkpt>
      <trkpt lat="47.535770" lon="7.877432">
        <ele>355.254303</ele>
        <time>2021-11-07T09:43:32.385Z</time>
      </trkpt>
      <trkpt lat="47.535635" lon="7.877484">
        <ele>356.005378</ele>
        <time>2021-11-07T09:43:38.252Z</time>
      </trkpt>
      <trkpt lat="47.535551" lon="7.877487">
        <ele>356.457802</ele>
        <time>2021-11-07T09:43:40.160Z</time>
      </trkpt>
      <trkpt lat="47.535322" lon="7.877590">
        <ele>357.746433</ele>
        <time>2021-11-07T09:43:50.212Z</time>
      </trkpt>
      <trkpt lat="47.535088" lon="7.877742">
        <ele>359.122228</ele>
        <time>2021-11-07T09:43:58.044Z</time>
      </trkpt>
      <trkpt lat="47.534855" lon="7.878090">
        <ele>360.903897</ele>
        <time>2021-11-07T09:44:10.027Z</time>
      </trkpt>
      <trkpt lat="47.534778" lon="7.878270">
        <ele>361.678534</ele>
        <time>2021-11-07T09:44:17.334Z</time>
      </trkpt>
      <trkpt lat="47.534825" lon="7.878414">
        <ele>362.259974</ele>
        <time>2021-11-07T09:44:19.961Z</time>
      </trkpt>
      <trkpt lat="47.534946" lon="7.878790">
        <ele>363.774162</ele>
        <time>2021-11-07T09:44:32.009Z</time>
      </trkpt>
      <trkpt lat="47.534908" lon="7.878975">
        <ele>364.477119</ele>
        <time>2021-11-07T09:44:36.067Z</time>
      </trkpt>
      <trkpt lat="47.534616" lon="7.879490">
        <ele>366.257697</ele>
        <time>2021-11-07T09:44:53.013Z</time>
      </trkpt>
      <trkpt lat="47.533892" lon="7.880353">
        <ele>369.776049</ele>
        <time>2021-11-07T09:45:20.753Z</time>
      </trkpt>
      <trkpt lat="47.533606" lon="7.880961">
        <ele>371.543926</ele>
        <time>2021-11-07T09:45:33.061Z</time>
      </trkpt>
      <trkpt lat="47.533374" lon="7.881639">
        <ele>372.093880</ele>
        <time>2021-11-07T09:45:44.107Z</time>
      </trkpt>
      <trkpt lat="47.533014" lon="7.882949">
        <ele>373.117205</ele>
        <time>2021-11-07T09:46:02.022Z</time>
      </trkpt>
      <trkpt lat="47.532859" lon="7.883508">
        <ele>373.295082</ele>
        <time>2021-11-07T09:46:07.900Z</time>
      </trkpt>
      <trkpt lat="47.532713" lon="7.884122">
        <ele>372.846620</ele>
        <time>2021-11-07T09:46:13.597Z</time>
      </trkpt>
      <trkpt lat="47.532699" lon="7.884224">
        <ele>372.774913</ele>
        <time>2021-11-07T09:46:14.551Z</time>
      </trkpt>
      <trkpt lat="47.532670" lon="7.884773">
        <ele>372.395541</ele>
        <time>2021-11-07T09:46:19.045Z</time>
      </trkpt>
      <trkpt lat="47.532658" lon="7.884989">
        <ele>372.246232</ele>
        <time>2021-11-07T09:46:20.657Z</time>
      </trkpt>
      <trkpt lat="47.532650" lon="7.885569">
        <ele>371.846575</ele>
        <time>2021-11-07T09:46:25.159Z</time>
      </trkpt>
      <trkpt lat="47.532505" lon="7.887120">
        <ele>370.181917</ele>
        <time>2021-11-07T09:46:37.110Z</time>
      </trkpt>
      <trkpt lat="47.532288" lon="7.887728">
        <ele>369.368932</ele>
        <time>2021-11-07T09:46:42.287Z</time>
      </trkpt>
      <trkpt lat="47.532011" lon="7.888896">
        <ele>368.145437</ele>
        <time>2021-11-07T09:46:51.523Z</time>
      </trkpt>
      <trkpt lat="47.531843" lon="7.889349">
        <ele>367.810222</ele>
        <time>2021-11-07T09:46:55.559Z</time>
      </trkpt>
      <trkpt lat="47.531560" lon="7.889776">
        <ele>367.422144</ele>
        <time>2021-11-07T09:47:00.500Z</time>
      </trkpt>
      <trkpt lat="47.531265" lon="7.889937">
        <ele>367.120135</ele>
        <time>2021-11-07T09:47:04.467Z</time>
      </trkpt>
      <trkpt lat="47.531076" lon="7.890029">
        <ele>366.929025</ele>
        <time>2021-11-07T09:47:07.299Z</time>
      </trkpt>
      <trkpt lat="47.530914" lon="7.890147">
        <ele>366.755603</ele>
        <time>2021-11-07T09:47:09.717Z</time>
      </trkpt>
      <trkpt lat="47.530606" lon="7.890373">
        <ele>366.930968</ele>
        <time>2021-11-07T09:47:15.224Z</time>
      </trkpt>
      <trkpt lat="47.530322" lon="7.890690">
        <ele>367.197682</ele>
        <time>2021-11-07T09:47:21.217Z</time>
      </trkpt>
      <trkpt lat="47.529972" lon="7.891210">
        <ele>367.569495</ele>
        <time>2021-11-07T09:47:30.372Z</time>
      </trkpt>
      <trkpt lat="47.529714" lon="7.891609">
        <ele>367.849256</ele>
        <time>2021-11-07T09:47:37.705Z</time>
      </trkpt>
      <trkpt lat="47.529695" lon="7.891638">
        <ele>367.869719</ele>
        <time>2021-11-07T09:47:38.689Z</time>
      </trkpt>
      <trkpt lat="47.529235" lon="7.892158">
        <ele>368.411986</ele>
        <time>2021-11-07T09:47:49.607Z</time>
      </trkpt>
      <trkpt lat="47.528331" lon="7.892682">
        <ele>369.461179</ele>
        <time>2021-11-07T09:48:08.310Z</time>
      </trkpt>
      <trkpt lat="47.528003" lon="7.892732">
        <ele>369.817549</ele>
        <time>2021-11-07T09:48:14.016Z</time>
      </trkpt>
      <trkpt lat="47.527498" lon="7.892650">
        <ele>370.769189</ele>
        <time>2021-11-07T09:48:23.489Z</time>
      </trkpt>
      <trkpt lat="47.527011" lon="7.893061">
        <ele>372.044273</ele>
        <time>2021-11-07T09:48:36.681Z</time>
      </trkpt>
      <trkpt lat="47.526709" lon="7.893617">
        <ele>373.140331</ele>
        <time>2021-11-07T09:48:49.213Z</time>
      </trkpt>
      <trkpt lat="47.526504" lon="7.894030">
        <ele>373.927681</ele>
        <time>2021-11-07T09:48:59.394Z</time>
      </trkpt>
      <trkpt lat="47.526451" lon="7.893983">
        <ele>374.068208</ele>
        <time>2021-11-07T09:49:00.783Z</time>
      </trkpt>
      <trkpt lat="47.526401" lon="7.893964">
        <ele>374.195940</ele>
        <time>2021-11-07T09:49:01.601Z</time>
      </trkpt>
      <trkpt lat="47.526335" lon="7.893960">
        <ele>374.363063</ele>
        <time>2021-11-07T09:49:03.675Z</time>
      </trkpt>
      <trkpt lat="47.526257" lon="7.894278">
        <ele>374.941074</ele>
        <time>2021-11-07T09:49:09.886Z</time>
      </trkpt>
      <trkpt lat="47.525725" lon="7.895110">
        <ele>376.898652</ele>
        <time>2021-11-07T09:49:28.969Z</time>
      </trkpt>
      <trkpt lat="47.525603" lon="7.895265">
        <ele>377.305344</ele>
        <time>2021-11-07T09:49:34.584Z</time>
      </trkpt>
      <trkpt lat="47.525631" lon="7.895442">
        <ele>377.615926</ele>
        <time>2021-11-07T09:49:37.434Z</time>
      </trkpt>
      <trkpt lat="47.525631" lon="7.895583">
        <ele>377.856817</ele>
        <time>2021-11-07T09:49:38.626Z</time>
      </trkpt>
      <trkpt lat="47.525622" lon="7.895944">
        <ele>378.473986</ele>
        <time>2021-11-07T09:49:46.061Z</time>
      </trkpt>
      <trkpt lat="47.525590" lon="7.896117">
        <ele>378.668462</ele>
        <time>2021-11-07T09:49:47.614Z</time>
      </trkpt>
      <trkpt lat="47.525518" lon="7.896336">
        <ele>378.741968</ele>
        <time>2021-11-07T09:49:52.420Z</time>
      </trkpt>
      <trkpt lat="47.524834" lon="7.897636">
        <ele>379.239308</ele>
        <time>2021-11-07T09:50:09.345Z</time>
      </trkpt>
      <trkpt lat="47.524617" lon="7.898216">
        <ele>379.439410</ele>
        <time>2021-11-07T09:50:15.518Z</time>
      </trkpt>
      <trkpt lat="47.524360" lon="7.898951">
        <ele>379.669729</ele>
        <time>2021-11-07T09:50:23.059Z</time>
      </trkpt>
      <trkpt lat="47.524309" lon="7.899115">
        <ele>379.719816</ele>
        <time>2021-11-07T09:50:24.973Z</time>
      </trkpt>
      <trkpt lat="47.523896" lon="7.900001">
        <ele>380.018469</ele>
        <time>2021-11-07T09:50:36.896Z</time>
      </trkpt>
      <trkpt lat="47.523861" lon="7.900049">
        <ele>380.038066</ele>
        <time>2021-11-07T09:50:37.875Z</time>
      </trkpt>
      <trkpt lat="47.523890" lon="7.900131">
        <ele>380.063744</ele>
        <time>2021-11-07T09:50:38.830Z</time>
      </trkpt>
      <trkpt lat="47.523945" lon="7.900256">
        <ele>380.105132</ele>
        <time>2021-11-07T09:50:40.421Z</time>
      </trkpt>
      <trkpt lat="47.523989" lon="7.900340">
        <ele>380.134622</ele>
        <time>2021-11-07T09:50:41.471Z</time>
      </trkpt>
      <trkpt lat="47.523957" lon="7.900371">
        <ele>380.150331</ele>
        <time>2021-11-07T09:50:42.175Z</time>
      </trkpt>
      <trkpt lat="47.523878" lon="7.900445">
        <ele>380.199525</ele>
        <time>2021-11-07T09:50:44.292Z</time>
      </trkpt>
      <trkpt lat="47.523739" lon="7.900557">
        <ele>380.705699</ele>
        <time>2021-11-07T09:50:47.224Z</time>
      </trkpt>
      <trkpt lat="47.523648" lon="7.900606">
        <ele>381.015425</ele>
        <time>2021-11-07T09:50:49.403Z</time>
      </trkpt>
      <trkpt lat="47.523620" lon="7.900698">
        <ele>381.233398</ele>
        <time>2021-11-07T09:50:51.366Z</time>
      </trkpt>
      <trkpt lat="47.523567" lon="7.900820">
        <ele>381.546743</ele>
        <time>2021-11-07T09:50:53.463Z</time>
      </trkpt>
      <trkpt lat="47.523433" lon="7.901043">
        <ele>382.191524</ele>
        <time>2021-11-07T09:50:58.707Z</time>
      </trkpt>
      <trkpt lat="47.523340" lon="7.901197">
        <ele>382.637782</ele>
        <time>2021-11-07T09:51:02.750Z</time>
      </trkpt>
      <trkpt lat="47.523036" lon="7.901580">
        <ele>383.914492</ele>
        <time>2021-11-07T09:51:14.445Z</time>
      </trkpt>
      <trkpt lat="47.522688" lon="7.901843">
        <ele>385.164220</ele>
        <time>2021-11-07T09:51:26.763Z</time>
      </trkpt>
      <trkpt lat="47.522554" lon="7.901999">
        <ele>385.709443</ele>
        <time>2021-11-07T09:51:33.084Z</time>
      </trkpt>
      <trkpt lat="47.522260" lon="7.902356">
        <ele>387.139707</ele>
        <time>2021-11-07T09:51:45.457Z</time>
      </trkpt>
      <trkpt lat="47.522132" lon="7.902476">
        <ele>387.729607</ele>
        <time>2021-11-07T09:51:50.015Z</time>
      </trkpt>
      <trkpt lat="47.522065" lon="7.902526">
        <ele>388.021752</ele>
        <time>2021-11-07T09:51:52.210Z</time>
      </trkpt>
      <trkpt lat="47.522038" lon="7.902562">
        <ele>388.163224</ele>
        <time>2021-11-07T09:51:53.693Z</time>
      </trkpt>
      <trkpt lat="47.522013" lon="7.902637">
        <ele>388.383156</ele>
        <time>2021-11-07T09:51:55.793Z</time>
      </trkpt>
      <trkpt lat="47.521792" lon="7.903347">
        <ele>390.438913</ele>
        <time>2021-11-07T09:52:11.685Z</time>
      </trkpt>
      <trkpt lat="47.521297" lon="7.904312">
        <ele>393.245639</ele>
        <time>2021-11-07T09:52:35.709Z</time>
      </trkpt>
      <trkpt lat="47.521013" lon="7.905064">
        <ele>394.248345</ele>
        <time>2021-11-07T09:52:49.900Z</time>
      </trkpt>
      <trkpt lat="47.520989" lon="7.905130">
        <ele>394.335581</ele>
        <time>2021-11-07T09:52:50.890Z</time>
      </trkpt>
      <trkpt lat="47.520678" lon="7.906050">
        <ele>395.532901</ele>
        <time>2021-11-07T09:53:04.494Z</time>
      </trkpt>
      <trkpt lat="47.520566" lon="7.906668">
        <ele>396.059554</ele>
        <time>2021-11-07T09:53:11.529Z</time>
      </trkpt>
      <trkpt lat="47.520528" lon="7.906930">
        <ele>396.080745</ele>
        <time>2021-11-07T09:53:14.791Z</time>
      </trkpt>
      <trkpt lat="47.520515" lon="7.907103">
        <ele>396.094510</ele>
        <time>2021-11-07T09:53:16.790Z</time>
      </trkpt>
      <trkpt lat="47.520515" lon="7.907103">
        <ele>396.094510</ele>
        <time>2021-11-07T09:53:16.796Z</time>
      </trkpt>
      <trkpt lat="47.520506" lon="7.907236">
        <ele>396.105080</ele>
        <time>2021-11-07T09:53:18.129Z</time>
      </trkpt>
      <trkpt lat="47.520551" lon="7.907422">
        <ele>396.120704</ele>
        <time>2021-11-07T09:53:20.539Z</time>
      </trkpt>
      <trkpt lat="47.520733" lon="7.907655">
        <ele>396.148876</ele>
        <time>2021-11-07T09:53:23.726Z</time>
      </trkpt>
      <trkpt lat="47.520738" lon="7.907839">
        <ele>396.163438</ele>
        <time>2021-11-07T09:53:25.869Z</time>
      </trkpt>
      <trkpt lat="47.520493" lon="7.908683">
        <ele>396.236085</ele>
        <time>2021-11-07T09:53:34.048Z</time>
      </trkpt>
      <trkpt lat="47.519997" lon="7.910833">
        <ele>397.126928</ele>
        <time>2021-11-07T09:53:59.995Z</time>
      </trkpt>
      <trkpt lat="47.519891" lon="7.911129">
        <ele>397.270112</ele>
        <time>2021-11-07T09:54:04.584Z</time>
      </trkpt>
      <trkpt lat="47.519720" lon="7.911522">
        <ele>397.526911</ele>
        <time>2021-11-07T09:54:10.669Z</time>
      </trkpt>
      <trkpt lat="47.519421" lon="7.912098">
        <ele>398.065995</ele>
        <time>2021-11-07T09:54:20.235Z</time>
      </trkpt>
      <trkpt lat="47.517688" lon="7.914418">
        <ele>400.583600</ele>
        <time>2021-11-07T09:55:04.937Z</time>
      </trkpt>
      <trkpt lat="47.517523" lon="7.914749">
        <ele>400.876955</ele>
        <time>2021-11-07T09:55:10.400Z</time>
      </trkpt>
      <trkpt lat="47.517523" lon="7.914749">
        <ele>400.876955</ele>
        <time>2021-11-07T09:55:10.402Z</time>
      </trkpt>
      <trkpt lat="47.516978" lon="7.915083">
        <ele>401.472867</ele>
        <time>2021-11-07T09:55:21.335Z</time>
      </trkpt>
      <trkpt lat="47.516806" lon="7.914896">
        <ele>401.672079</ele>
        <time>2021-11-07T09:55:25.136Z</time>
      </trkpt>
      <trkpt lat="47.516748" lon="7.914873">
        <ele>401.728135</ele>
        <time>2021-11-07T09:55:26.306Z</time>
      </trkpt>
      <trkpt lat="47.516662" lon="7.914835">
        <ele>401.811920</ele>
        <time>2021-11-07T09:55:28.095Z</time>
      </trkpt>
      <trkpt lat="47.516626" lon="7.914830">
        <ele>401.845676</ele>
        <time>2021-11-07T09:55:28.795Z</time>
      </trkpt>
      <trkpt lat="47.516590" lon="7.914840">
        <ele>401.879871</ele>
        <time>2021-11-07T09:55:29.402Z</time>
      </trkpt>
      <trkpt lat="47.516569" lon="7.914864">
        <ele>401.904637</ele>
        <time>2021-11-07T09:55:29.946Z</time>
      </trkpt>
      <trkpt lat="47.516544" lon="7.914936">
        <ele>401.955682</ele>
        <time>2021-11-07T09:55:30.839Z</time>
      </trkpt>
      <trkpt lat="47.516391" lon="7.915243">
        <ele>402.196245</ele>
        <time>2021-11-07T09:55:35.638Z</time>
      </trkpt>
      <trkpt lat="47.515014" lon="7.917030">
        <ele>404.068938</ele>
        <time>2021-11-07T09:56:09.469Z</time>
      </trkpt>
      <trkpt lat="47.514635" lon="7.917349">
        <ele>404.545250</ele>
        <time>2021-11-07T09:56:17.587Z</time>
      </trkpt>
      <trkpt lat="47.514561" lon="7.917409">
        <ele>404.637428</ele>
        <time>2021-11-07T09:56:19.479Z</time>
      </trkpt>
      <trkpt lat="47.514255" lon="7.917714">
        <ele>405.136946</ele>
        <time>2021-11-07T09:56:26.948Z</time>
      </trkpt>
      <trkpt lat="47.513378" lon="7.918393">
        <ele>407.031123</ele>
        <time>2021-11-07T09:56:48.675Z</time>
      </trkpt>
      <trkpt lat="47.513160" lon="7.918764">
        <ele>407.666814</ele>
        <time>2021-11-07T09:56:56.176Z</time>
      </trkpt>
      <trkpt lat="47.513058" lon="7.918896">
        <ele>407.926101</ele>
        <time>2021-11-07T09:56:59.332Z</time>
      </trkpt>
      <trkpt lat="47.512938" lon="7.919052">
        <ele>408.231746</ele>
        <time>2021-11-07T09:57:03.111Z</time>
      </trkpt>
      <trkpt lat="47.512664" lon="7.919306">
        <ele>409.261232</ele>
        <time>2021-11-07T09:57:11.334Z</time>
      </trkpt>
      <trkpt lat="47.512255" lon="7.919538">
        <ele>410.793908</ele>
        <time>2021-11-07T09:57:23.260Z</time>
      </trkpt>
      <trkpt lat="47.512085" lon="7.919732">
        <ele>411.545002</ele>
        <time>2021-11-07T09:57:29.468Z</time>
      </trkpt>
      <trkpt lat="47.511964" lon="7.919989">
        <ele>412.285452</ele>
        <time>2021-11-07T09:57:35.948Z</time>
      </trkpt>
      <trkpt lat="47.511883" lon="7.920133">
        <ele>412.728378</ele>
        <time>2021-11-07T09:57:39.962Z</time>
      </trkpt>
      <trkpt lat="47.511632" lon="7.920105">
        <ele>413.609201</ele>
        <time>2021-11-07T09:57:48.943Z</time>
      </trkpt>
      <trkpt lat="47.511375" lon="7.920079">
        <ele>414.510627</ele>
        <time>2021-11-07T09:57:57.439Z</time>
      </trkpt>
      <trkpt lat="47.510704" lon="7.919944">
        <ele>418.988550</ele>
        <time>2021-11-07T09:58:24.400Z</time>
      </trkpt>
      <trkpt lat="47.510627" lon="7.919935">
        <ele>419.514189</ele>
        <time>2021-11-07T09:58:27.243Z</time>
      </trkpt>
      <trkpt lat="47.510551" lon="7.919925">
        <ele>420.033430</ele>
        <time>2021-11-07T09:58:30.711Z</time>
      </trkpt>
      <trkpt lat="47.509902" lon="7.920009">
        <ele>424.466918</ele>
        <time>2021-11-07T09:59:01.931Z</time>
      </trkpt>
      <trkpt lat="47.509811" lon="7.920040">
        <ele>425.102383</ele>
        <time>2021-11-07T09:59:06.333Z</time>
      </trkpt>
      <trkpt lat="47.509780" lon="7.919943">
        <ele>425.595656</ele>
        <time>2021-11-07T09:59:11.467Z</time>
      </trkpt>
      <trkpt lat="47.509592" lon="7.919606">
        <ele>428.379597</ele>
        <time>2021-11-07T09:59:24.630Z</time>
      </trkpt>
      <trkpt lat="47.509472" lon="7.919450">
        <ele>430.642773</ele>
        <time>2021-11-07T09:59:37.320Z</time>
      </trkpt>
      <trkpt lat="47.509413" lon="7.919394">
        <ele>431.635981</ele>
        <time>2021-11-07T09:59:40.336Z</time>
      </trkpt>
      <trkpt lat="47.509300" lon="7.919312">
        <ele>433.419402</ele>
        <time>2021-11-07T09:59:47.279Z</time>
      </trkpt>
      <trkpt lat="47.509213" lon="7.919220">
        <ele>434.934557</ele>
        <time>2021-11-07T09:59:58.543Z</time>
      </trkpt>
      <trkpt lat="47.508928" lon="7.918826">
        <ele>440.460639</ele>
        <time>2021-11-07T10:00:24.722Z</time>
      </trkpt>
      <trkpt lat="47.508826" lon="7.918731">
        <ele>442.168408</ele>
        <time>2021-11-07T10:00:31.123Z</time>
      </trkpt>
      <trkpt lat="47.508716" lon="7.918612">
        <ele>444.099142</ele>
        <time>2021-11-07T10:00:43.108Z</time>
      </trkpt>
      <trkpt lat="47.508696" lon="7.918579">
        <ele>444.523552</ele>
        <time>2021-11-07T10:00:46.358Z</time>
      </trkpt>
      <trkpt lat="47.508574" lon="7.918322">
        <ele>447.530480</ele>
        <time>2021-11-07T10:00:58.693Z</time>
      </trkpt>
      <trkpt lat="47.508539" lon="7.918215">
        <ele>448.668529</ele>
        <time>2021-11-07T10:01:03.950Z</time>
      </trkpt>
      <trkpt lat="47.508519" lon="7.918140">
        <ele>449.440399</ele>
        <time>2021-11-07T10:01:09.840Z</time>
      </trkpt>
      <trkpt lat="47.508288" lon="7.916949">
        <ele>464.412711</ele>
        <time>2021-11-07T10:02:23.272Z</time>
      </trkpt>
      <trkpt lat="47.507722" lon="7.915765">
        <ele>483.138167</ele>
        <time>2021-11-07T10:03:58.214Z</time>
      </trkpt>
      <trkpt lat="47.507619" lon="7.915426">
        <ele>487.544010</ele>
        <time>2021-11-07T10:04:21.516Z</time>
      </trkpt>
      <trkpt lat="47.507438" lon="7.914913">
        <ele>492.534967</ele>
        <time>2021-11-07T10:04:56.078Z</time>
      </trkpt>
      <trkpt lat="47.507031" lon="7.914093">
        <ele>501.309928</ele>
        <time>2021-11-07T10:05:47.188Z</time>
      </trkpt>
      <trkpt lat="47.506741" lon="7.913552">
        <ele>507.265752</ele>
        <time>2021-11-07T10:06:12.203Z</time>
      </trkpt>
      <trkpt lat="47.506620" lon="7.913426">
        <ele>509.154343</ele>
        <time>2021-11-07T10:06:17.249Z</time>
      </trkpt>
      <trkpt lat="47.506403" lon="7.913196">
        <ele>509.196298</ele>
        <time>2021-11-07T10:06:23.834Z</time>
      </trkpt>
      <trkpt lat="47.506357" lon="7.913069">
        <ele>508.969636</ele>
        <time>2021-11-07T10:06:26.341Z</time>
      </trkpt>
      <trkpt lat="47.506370" lon="7.912895">
        <ele>508.694284</ele>
        <time>2021-11-07T10:06:28.552Z</time>
      </trkpt>
      <trkpt lat="47.506397" lon="7.912810">
        <ele>508.546544</ele>
        <time>2021-11-07T10:06:30.373Z</time>
      </trkpt>
      <trkpt lat="47.506437" lon="7.912765">
        <ele>508.429562</ele>
        <time>2021-11-07T10:06:30.804Z</time>
      </trkpt>
      <trkpt lat="47.506603" lon="7.912858">
        <ele>508.016284</ele>
        <time>2021-11-07T10:06:33.616Z</time>
      </trkpt>
      <trkpt lat="47.507354" lon="7.913927">
        <ele>505.590385</ele>
        <time>2021-11-07T10:06:43.398Z</time>
      </trkpt>
      <trkpt lat="47.507503" lon="7.914069">
        <ele>504.733424</ele>
        <time>2021-11-07T10:06:44.945Z</time>
      </trkpt>
      <trkpt lat="47.507686" lon="7.914148">
        <ele>503.725353</ele>
        <time>2021-11-07T10:06:46.592Z</time>
      </trkpt>
      <trkpt lat="47.508426" lon="7.914164">
        <ele>499.811570</ele>
        <time>2021-11-07T10:06:53.202Z</time>
      </trkpt>
      <trkpt lat="47.508709" lon="7.914562">
        <ele>497.747328</ele>
        <time>2021-11-07T10:06:56.808Z</time>
      </trkpt>
      <trkpt lat="47.508782" lon="7.914668">
        <ele>497.206581</ele>
        <time>2021-11-07T10:06:57.738Z</time>
      </trkpt>
      <trkpt lat="47.509091" lon="7.915120">
        <ele>496.838408</ele>
        <time>2021-11-07T10:07:05.189Z</time>
      </trkpt>
      <trkpt lat="47.509594" lon="7.915837">
        <ele>499.585501</ele>
        <time>2021-11-07T10:07:23.304Z</time>
      </trkpt>
      <trkpt lat="47.509723" lon="7.915879">
        <ele>500.105140</ele>
        <time>2021-11-07T10:07:28.061Z</time>
      </trkpt>
      <trkpt lat="47.509854" lon="7.915813">
        <ele>500.649546</ele>
        <time>2021-11-07T10:07:31.786Z</time>
      </trkpt>
      <trkpt lat="47.509916" lon="7.915715">
        <ele>501.006364</ele>
        <time>2021-11-07T10:07:35.748Z</time>
      </trkpt>
      <trkpt lat="47.509948" lon="7.915569">
        <ele>501.414259</ele>
        <time>2021-11-07T10:07:40.068Z</time>
      </trkpt>
      <trkpt lat="47.510115" lon="7.915369">
        <ele>502.259323</ele>
        <time>2021-11-07T10:07:49.571Z</time>
      </trkpt>
      <trkpt lat="47.511596" lon="7.914259">
        <ele>514.131870</ele>
        <time>2021-11-07T10:09:11.389Z</time>
      </trkpt>
      <trkpt lat="47.511732" lon="7.914030">
        <ele>515.701796</ele>
        <time>2021-11-07T10:09:19.291Z</time>
      </trkpt>
      <trkpt lat="47.511803" lon="7.913909">
        <ele>516.527004</ele>
        <time>2021-11-07T10:09:22.903Z</time>
      </trkpt>
      <trkpt lat="47.511968" lon="7.913303">
        <ele>518.852571</ele>
        <time>2021-11-07T10:09:37.670Z</time>
      </trkpt>
      <trkpt lat="47.512010" lon="7.913161">
        <ele>519.382416</ele>
        <time>2021-11-07T10:09:42.029Z</time>
      </trkpt>
      <trkpt lat="47.512111" lon="7.912826">
        <ele>520.636322</ele>
        <time>2021-11-07T10:09:49.814Z</time>
      </trkpt>
      <trkpt lat="47.512145" lon="7.912581">
        <ele>521.491212</ele>
        <time>2021-11-07T10:09:56.176Z</time>
      </trkpt>
      <trkpt lat="47.512145" lon="7.912284">
        <ele>522.506342</ele>
        <time>2021-11-07T10:10:02.304Z</time>
      </trkpt>
      <trkpt lat="47.512105" lon="7.911774">
        <ele>524.261210</ele>
        <time>2021-11-07T10:10:14.297Z</time>
      </trkpt>
      <trkpt lat="47.512094" lon="7.911561">
        <ele>524.991358</ele>
        <time>2021-11-07T10:10:20.810Z</time>
      </trkpt>
      <trkpt lat="47.512061" lon="7.911240">
        <ele>526.138417</ele>
        <time>2021-11-07T10:10:27.110Z</time>
      </trkpt>
      <trkpt lat="47.512046" lon="7.911143">
        <ele>526.542647</ele>
        <time>2021-11-07T10:10:30.473Z</time>
      </trkpt>
      <trkpt lat="47.512027" lon="7.911061">
        <ele>526.894804</ele>
        <time>2021-11-07T10:10:32.849Z</time>
      </trkpt>
      <trkpt lat="47.511999" lon="7.910990">
        <ele>527.228784</ele>
        <time>2021-11-07T10:10:34.850Z</time>
      </trkpt>
      <trkpt lat="47.511957" lon="7.910912">
        <ele>527.634001</ele>
        <time>2021-11-07T10:10:36.513Z</time>
      </trkpt>
      <trkpt lat="47.511612" lon="7.910466">
        <ele>530.388577</ele>
        <time>2021-11-07T10:10:49.960Z</time>
      </trkpt>
      <trkpt lat="47.511554" lon="7.910372">
        <ele>530.905771</ele>
        <time>2021-11-07T10:10:53.838Z</time>
      </trkpt>
      <trkpt lat="47.511423" lon="7.910000">
        <ele>532.609980</ele>
        <time>2021-11-07T10:11:04.139Z</time>
      </trkpt>
      <trkpt lat="47.511377" lon="7.909751">
        <ele>533.658635</ele>
        <time>2021-11-07T10:11:12.804Z</time>
      </trkpt>
      <trkpt lat="47.511210" lon="7.908836">
        <ele>537.941406</ele>
        <time>2021-11-07T10:11:41.364Z</time>
      </trkpt>
      <trkpt lat="47.511051" lon="7.908448">
        <ele>540.796777</ele>
        <time>2021-11-07T10:11:54.778Z</time>
      </trkpt>
      <trkpt lat="47.511003" lon="7.908355">
        <ele>541.533190</ele>
        <time>2021-11-07T10:11:59.535Z</time>
      </trkpt>
      <trkpt lat="47.510770" lon="7.908048">
        <ele>544.438643</ele>
        <time>2021-11-07T10:12:13.356Z</time>
      </trkpt>
      <trkpt lat="47.509018" lon="7.905757">
        <ele>570.695436</ele>
        <time>2021-11-07T10:14:28.455Z</time>
      </trkpt>
      <trkpt lat="47.508735" lon="7.905378">
        <ele>575.501036</ele>
        <time>2021-11-07T10:14:58.286Z</time>
      </trkpt>
      <trkpt lat="47.508336" lon="7.904859">
        <ele>584.851738</ele>
        <time>2021-11-07T10:15:47.634Z</time>
      </trkpt>
      <trkpt lat="47.507755" lon="7.904094">
        <ele>598.941956</ele>
        <time>2021-11-07T10:16:57.086Z</time>
      </trkpt>
      <trkpt lat="47.507642" lon="7.903919">
        <ele>601.905364</ele>
        <time>2021-11-07T10:17:13.678Z</time>
      </trkpt>
      <trkpt lat="47.507513" lon="7.903762">
        <ele>604.931560</ele>
        <time>2021-11-07T10:17:29.540Z</time>
      </trkpt>
      <trkpt lat="47.507370" lon="7.903682">
        <ele>607.701755</ele>
        <time>2021-11-07T10:17:41.943Z</time>
      </trkpt>
      <trkpt lat="47.507207" lon="7.903725">
        <ele>610.023884</ele>
        <time>2021-11-07T10:17:57.745Z</time>
      </trkpt>
      <trkpt lat="47.506576" lon="7.904680">
        <ele>620.784080</ele>
        <time>2021-11-07T10:19:03.536Z</time>
      </trkpt>
      <trkpt lat="47.506523" lon="7.904711">
        <ele>621.463593</ele>
        <time>2021-11-07T10:19:08.517Z</time>
      </trkpt>
      <trkpt lat="47.506472" lon="7.904720">
        <ele>622.076024</ele>
        <time>2021-11-07T10:19:12.896Z</time>
      </trkpt>
      <trkpt lat="47.506293" lon="7.904649">
        <ele>624.285711</ele>
        <time>2021-11-07T10:19:21.737Z</time>
      </trkpt>
      <trkpt lat="47.506127" lon="7.904233">
        <ele>628.177471</ele>
        <time>2021-11-07T10:19:33.828Z</time>
      </trkpt>
      <trkpt lat="47.505921" lon="7.903877">
        <ele>630.304424</ele>
        <time>2021-11-07T10:19:44.343Z</time>
      </trkpt>
      <trkpt lat="47.505864" lon="7.903761">
        <ele>630.393861</ele>
        <time>2021-11-07T10:19:47.460Z</time>
      </trkpt>
      <trkpt lat="47.505779" lon="7.903771">
        <ele>630.472563</ele>
        <time>2021-11-07T10:19:49.726Z</time>
      </trkpt>
      <trkpt lat="47.505478" lon="7.903468">
        <ele>630.808534</ele>
        <time>2021-11-07T10:19:59.716Z</time>
      </trkpt>
      <trkpt lat="47.505092" lon="7.902759">
        <ele>631.376297</ele>
        <time>2021-11-07T10:20:10.323Z</time>
      </trkpt>
      <trkpt lat="47.504178" lon="7.900100">
        <ele>626.702220</ele>
        <time>2021-11-07T10:20:30.683Z</time>
      </trkpt>
      <trkpt lat="47.504061" lon="7.899727">
        <ele>625.773144</ele>
        <time>2021-11-07T10:20:33.369Z</time>
      </trkpt>
      <trkpt lat="47.503897" lon="7.899246">
        <ele>624.685146</ele>
        <time>2021-11-07T10:20:36.888Z</time>
      </trkpt>
      <trkpt lat="47.503634" lon="7.898466">
        <ele>622.924769</ele>
        <time>2021-11-07T10:20:42.663Z</time>
      </trkpt>
      <trkpt lat="47.503488" lon="7.897768">
        <ele>621.449250</ele>
        <time>2021-11-07T10:20:47.610Z</time>
      </trkpt>
      <trkpt lat="47.503447" lon="7.897629">
        <ele>621.142971</ele>
        <time>2021-11-07T10:20:48.750Z</time>
      </trkpt>
      <trkpt lat="47.503354" lon="7.897295">
        <ele>620.418678</ele>
        <time>2021-11-07T10:20:51.596Z</time>
      </trkpt>
      <trkpt lat="47.503096" lon="7.896269">
        <ele>620.825771</ele>
        <time>2021-11-07T10:21:03.957Z</time>
      </trkpt>
      <trkpt lat="47.502986" lon="7.895692">
        <ele>621.048709</ele>
        <time>2021-11-07T10:21:11.994Z</time>
      </trkpt>
      <trkpt lat="47.502949" lon="7.895491">
        <ele>621.126177</ele>
        <time>2021-11-07T10:21:15.772Z</time>
      </trkpt>
      <trkpt lat="47.502670" lon="7.894886">
        <ele>621.398568</ele>
        <time>2021-11-07T10:21:25.391Z</time>
      </trkpt>
      <trkpt lat="47.502517" lon="7.894597">
        <ele>620.915121</ele>
        <time>2021-11-07T10:21:31.108Z</time>
      </trkpt>
      <trkpt lat="47.502453" lon="7.894433">
        <ele>620.642238</ele>
        <time>2021-11-07T10:21:32.447Z</time>
      </trkpt>
      <trkpt lat="47.502224" lon="7.893360">
        <ele>619.020943</ele>
        <time>2021-11-07T10:21:41.846Z</time>
      </trkpt>
      <trkpt lat="47.502213" lon="7.892998">
        <ele>618.498843</ele>
        <time>2021-11-07T10:21:44.509Z</time>
      </trkpt>
      <trkpt lat="47.502217" lon="7.892900">
        <ele>618.357386</ele>
        <time>2021-11-07T10:21:45.093Z</time>
      </trkpt>
      <trkpt lat="47.502142" lon="7.892201">
        <ele>616.647686</ele>
        <time>2021-11-07T10:21:49.635Z</time>
      </trkpt>
      <trkpt lat="47.501593" lon="7.891145">
        <ele>609.072166</ele>
        <time>2021-11-07T10:21:57.553Z</time>
      </trkpt>
      <trkpt lat="47.501490" lon="7.890827">
        <ele>607.067202</ele>
        <time>2021-11-07T10:21:59.595Z</time>
      </trkpt>
      <trkpt lat="47.501442" lon="7.890291">
        <ele>603.993244</ele>
        <time>2021-11-07T10:22:02.743Z</time>
      </trkpt>
      <trkpt lat="47.501468" lon="7.889658">
        <ele>600.300003</ele>
        <time>2021-11-07T10:22:06.448Z</time>
      </trkpt>
      <trkpt lat="47.501460" lon="7.889185">
        <ele>597.494653</ele>
        <time>2021-11-07T10:22:09.215Z</time>
      </trkpt>
      <trkpt lat="47.501458" lon="7.889097">
        <ele>596.972595</ele>
        <time>2021-11-07T10:22:09.715Z</time>
      </trkpt>
      <trkpt lat="47.501229" lon="7.887595">
        <ele>587.843074</ele>
        <time>2021-11-07T10:22:18.837Z</time>
      </trkpt>
      <trkpt lat="47.501173" lon="7.887242">
        <ele>585.910724</ele>
        <time>2021-11-07T10:22:20.996Z</time>
      </trkpt>
      <trkpt lat="47.501169" lon="7.887028">
        <ele>584.930115</ele>
        <time>2021-11-07T10:22:22.267Z</time>
      </trkpt>
      <trkpt lat="47.501203" lon="7.886606">
        <ele>582.983434</ele>
        <time>2021-11-07T10:22:24.972Z</time>
      </trkpt>
      <trkpt lat="47.501217" lon="7.886443">
        <ele>582.230798</ele>
        <time>2021-11-07T10:22:25.997Z</time>
      </trkpt>
      <trkpt lat="47.501340" lon="7.885347">
        <ele>577.141748</ele>
        <time>2021-11-07T10:22:32.835Z</time>
      </trkpt>
      <trkpt lat="47.501548" lon="7.884312">
        <ele>571.942059</ele>
        <time>2021-11-07T10:22:39.369Z</time>
      </trkpt>
      <trkpt lat="47.501604" lon="7.883848">
        <ele>569.540729</ele>
        <time>2021-11-07T10:22:42.218Z</time>
      </trkpt>
      <trkpt lat="47.501649" lon="7.883525">
        <ele>567.860540</ele>
        <time>2021-11-07T10:22:44.205Z</time>
      </trkpt>
      <trkpt lat="47.501738" lon="7.883219">
        <ele>566.163250</ele>
        <time>2021-11-07T10:22:46.239Z</time>
      </trkpt>
      <trkpt lat="47.501771" lon="7.883120">
        <ele>565.600830</ele>
        <time>2021-11-07T10:22:46.892Z</time>
      </trkpt>
      <trkpt lat="47.501864" lon="7.882799">
        <ele>563.821423</ele>
        <time>2021-11-07T10:22:49.006Z</time>
      </trkpt>
      <trkpt lat="47.502265" lon="7.881790">
        <ele>557.171954</ele>
        <time>2021-11-07T10:22:55.930Z</time>
      </trkpt>
      <trkpt lat="47.502443" lon="7.881187">
        <ele>553.061774</ele>
        <time>2021-11-07T10:22:59.835Z</time>
      </trkpt>
      <trkpt lat="47.502801" lon="7.880243">
        <ele>546.300084</ele>
        <time>2021-11-07T10:23:06.154Z</time>
      </trkpt>
      <trkpt lat="47.502838" lon="7.880150">
        <ele>545.625966</ele>
        <time>2021-11-07T10:23:06.769Z</time>
      </trkpt>
      <trkpt lat="47.502894" lon="7.880014">
        <ele>544.631167</ele>
        <time>2021-11-07T10:23:07.691Z</time>
      </trkpt>
      <trkpt lat="47.503005" lon="7.879648">
        <ele>541.951004</ele>
        <time>2021-11-07T10:23:10.022Z</time>
      </trkpt>
      <trkpt lat="47.503076" lon="7.878993">
        <ele>537.469323</ele>
        <time>2021-11-07T10:23:13.871Z</time>
      </trkpt>
      <trkpt lat="47.503079" lon="7.878798">
        <ele>536.151593</ele>
        <time>2021-11-07T10:23:15.007Z</time>
      </trkpt>
      <trkpt lat="47.503165" lon="7.878375">
        <ele>533.167263</ele>
        <time>2021-11-07T10:23:17.554Z</time>
      </trkpt>
      <trkpt lat="47.503455" lon="7.877034">
        <ele>524.196061</ele>
        <time>2021-11-07T10:23:25.803Z</time>
      </trkpt>
      <trkpt lat="47.503619" lon="7.876694">
        <ele>521.956953</ele>
        <time>2021-11-07T10:23:28.215Z</time>
      </trkpt>
      <trkpt lat="47.504101" lon="7.875980">
        <ele>516.547016</ele>
        <time>2021-11-07T10:23:34.219Z</time>
      </trkpt>
      <trkpt lat="47.504368" lon="7.875216">
        <ele>511.989598</ele>
        <time>2021-11-07T10:23:39.502Z</time>
      </trkpt>
      <trkpt lat="47.504456" lon="7.874954">
        <ele>511.659160</ele>
        <time>2021-11-07T10:23:41.282Z</time>
      </trkpt>
      <trkpt lat="47.504138" lon="7.874810">
        <ele>511.103224</ele>
        <time>2021-11-07T10:23:44.565Z</time>
      </trkpt>
      <trkpt lat="47.503780" lon="7.874762">
        <ele>510.502286</ele>
        <time>2021-11-07T10:23:48.371Z</time>
      </trkpt>
      <trkpt lat="47.503258" lon="7.874914">
        <ele>509.612907</ele>
        <time>2021-11-07T10:23:55.401Z</time>
      </trkpt>
      <trkpt lat="47.502952" lon="7.875026">
        <ele>509.085944</ele>
        <time>2021-11-07T10:24:00.513Z</time>
      </trkpt>
      <trkpt lat="47.502842" lon="7.875099">
        <ele>509.335728</ele>
        <time>2021-11-07T10:24:04.690Z</time>
      </trkpt>
      <trkpt lat="47.502590" lon="7.875352">
        <ele>510.871039</ele>
        <time>2021-11-07T10:24:12.945Z</time>
      </trkpt>
      <trkpt lat="47.501223" lon="7.877550">
        <ele>522.531124</ele>
        <time>2021-11-07T10:25:31.815Z</time>
      </trkpt>
      <trkpt lat="47.500871" lon="7.877817">
        <ele>525.517530</ele>
        <time>2021-11-07T10:25:49.451Z</time>
      </trkpt>
      <trkpt lat="47.500646" lon="7.877870">
        <ele>527.237763</ele>
        <time>2021-11-07T10:26:00.227Z</time>
      </trkpt>
      <trkpt lat="47.500435" lon="7.877886">
        <ele>528.833002</ele>
        <time>2021-11-07T10:26:09.050Z</time>
      </trkpt>
      <trkpt lat="47.500406" lon="7.877881">
        <ele>529.053446</ele>
        <time>2021-11-07T10:26:10.184Z</time>
      </trkpt>
      <trkpt lat="47.500301" lon="7.877860">
        <ele>529.853450</ele>
        <time>2021-11-07T10:26:16.124Z</time>
      </trkpt>
      <trkpt lat="47.499321" lon="7.877227">
        <ele>538.582133</ele>
        <time>2021-11-07T10:27:13.984Z</time>
      </trkpt>
      <trkpt lat="47.499098" lon="7.877132">
        <ele>540.517079</ele>
        <time>2021-11-07T10:27:24.507Z</time>
      </trkpt>
      <trkpt lat="47.498805" lon="7.877120">
        <ele>542.961167</ele>
        <time>2021-11-07T10:27:37.468Z</time>
      </trkpt>
      <trkpt lat="47.498728" lon="7.877133">
        <ele>543.607387</ele>
        <time>2021-11-07T10:27:42.130Z</time>
      </trkpt>
      <trkpt lat="47.498708" lon="7.876999">
        <ele>544.380475</ele>
        <time>2021-11-07T10:27:46.270Z</time>
      </trkpt>
      <trkpt lat="47.498835" lon="7.876435">
        <ele>547.470364</ele>
        <time>2021-11-07T10:28:04.647Z</time>
      </trkpt>
      <trkpt lat="47.499282" lon="7.875162">
        <ele>553.622072</ele>
        <time>2021-11-07T10:28:52.190Z</time>
      </trkpt>
      <trkpt lat="47.499319" lon="7.875000">
        <ele>554.355326</ele>
        <time>2021-11-07T10:28:56.056Z</time>
      </trkpt>
      <trkpt lat="47.499268" lon="7.874920">
        <ele>554.826962</ele>
        <time>2021-11-07T10:29:00.166Z</time>
      </trkpt>
      <trkpt lat="47.499093" lon="7.874392">
        <ele>557.348726</ele>
        <time>2021-11-07T10:29:14.420Z</time>
      </trkpt>
      <trkpt lat="47.498401" lon="7.873824">
        <ele>560.236518</ele>
        <time>2021-11-07T10:29:40.968Z</time>
      </trkpt>
      <trkpt lat="47.498192" lon="7.873383">
        <ele>561.402795</ele>
        <time>2021-11-07T10:29:52.170Z</time>
      </trkpt>
      <trkpt lat="47.498142" lon="7.873340">
        <ele>561.588108</ele>
        <time>2021-11-07T10:29:55.280Z</time>
      </trkpt>
      <trkpt lat="47.498014" lon="7.873264">
        <ele>562.030068</ele>
        <time>2021-11-07T10:29:58.259Z</time>
      </trkpt>
      <trkpt lat="47.497701" lon="7.873105">
        <ele>563.090533</ele>
        <time>2021-11-07T10:30:05.730Z</time>
      </trkpt>
      <trkpt lat="47.497631" lon="7.872944">
        <ele>563.505054</ele>
        <time>2021-11-07T10:30:07.432Z</time>
      </trkpt>
      <trkpt lat="47.497633" lon="7.872780">
        <ele>563.787903</ele>
        <time>2021-11-07T10:30:10.177Z</time>
      </trkpt>
      <trkpt lat="47.497934" lon="7.872335">
        <ele>562.445639</ele>
        <time>2021-11-07T10:30:15.718Z</time>
      </trkpt>
      <trkpt lat="47.498055" lon="7.871303">
        <ele>560.212934</ele>
        <time>2021-11-07T10:30:22.934Z</time>
      </trkpt>
      <trkpt lat="47.498465" lon="7.870383">
        <ele>557.548477</ele>
        <time>2021-11-07T10:30:29.800Z</time>
      </trkpt>
      <trkpt lat="47.498712" lon="7.869428">
        <ele>552.960620</ele>
        <time>2021-11-07T10:30:36.112Z</time>
      </trkpt>
      <trkpt lat="47.498841" lon="7.868842">
        <ele>550.195486</ele>
        <time>2021-11-07T10:30:39.828Z</time>
      </trkpt>
      <trkpt lat="47.498841" lon="7.868725">
        <ele>549.670566</ele>
        <time>2021-11-07T10:30:40.514Z</time>
      </trkpt>
      <trkpt lat="47.498619" lon="7.867966">
        <ele>546.067539</ele>
        <time>2021-11-07T10:30:45.498Z</time>
      </trkpt>
      <trkpt lat="47.498572" lon="7.867305">
        <ele>544.397049</ele>
        <time>2021-11-07T10:30:49.665Z</time>
      </trkpt>
      <trkpt lat="47.498630" lon="7.867024">
        <ele>543.658578</ele>
        <time>2021-11-07T10:30:51.575Z</time>
      </trkpt>
      <trkpt lat="47.498653" lon="7.866934">
        <ele>543.416736</ele>
        <time>2021-11-07T10:30:52.139Z</time>
      </trkpt>
      <trkpt lat="47.498693" lon="7.866735">
        <ele>542.894917</ele>
        <time>2021-11-07T10:30:53.509Z</time>
      </trkpt>
      <trkpt lat="47.498708" lon="7.866607">
        <ele>542.568407</ele>
        <time>2021-11-07T10:30:54.404Z</time>
      </trkpt>
      <trkpt lat="47.498711" lon="7.866489">
        <ele>542.271624</ele>
        <time>2021-11-07T10:30:55.244Z</time>
      </trkpt>
      <trkpt lat="47.498701" lon="7.866355">
        <ele>541.932790</ele>
        <time>2021-11-07T10:30:56.111Z</time>
      </trkpt>
      <trkpt lat="47.498684" lon="7.866219">
        <ele>541.585176</ele>
        <time>2021-11-07T10:30:57.126Z</time>
      </trkpt>
      <trkpt lat="47.498584" lon="7.865733">
        <ele>540.308303</ele>
        <time>2021-11-07T10:31:00.858Z</time>
      </trkpt>
      <trkpt lat="47.498248" lon="7.864392">
        <ele>540.396433</ele>
        <time>2021-11-07T10:31:15.436Z</time>
      </trkpt>
      <trkpt lat="47.498166" lon="7.863537">
        <ele>541.080856</ele>
        <time>2021-11-07T10:31:30.345Z</time>
      </trkpt>
      <trkpt lat="47.498143" lon="7.863313">
        <ele>541.260425</ele>
        <time>2021-11-07T10:31:32.902Z</time>
      </trkpt>
      <trkpt lat="47.498094" lon="7.863239">
        <ele>541.342546</ele>
        <time>2021-11-07T10:31:35.008Z</time>
      </trkpt>
      <trkpt lat="47.498044" lon="7.863155">
        <ele>541.431272</ele>
        <time>2021-11-07T10:31:36.300Z</time>
      </trkpt>
      <trkpt lat="47.497989" lon="7.863021">
        <ele>541.555537</ele>
        <time>2021-11-07T10:31:39.130Z</time>
      </trkpt>
      <trkpt lat="47.497959" lon="7.862857">
        <ele>541.882104</ele>
        <time>2021-11-07T10:31:40.419Z</time>
      </trkpt>
      <trkpt lat="47.497995" lon="7.862394">
        <ele>543.313862</ele>
        <time>2021-11-07T10:31:48.931Z</time>
      </trkpt>
      <trkpt lat="47.498287" lon="7.861611">
        <ele>546.061402</ele>
        <time>2021-11-07T10:32:06.904Z</time>
      </trkpt>
      <trkpt lat="47.498322" lon="7.861024">
        <ele>547.871706</ele>
        <time>2021-11-07T10:32:23.084Z</time>
      </trkpt>
      <trkpt lat="47.498298" lon="7.860778">
        <ele>548.635270</ele>
        <time>2021-11-07T10:32:28.052Z</time>
      </trkpt>
      <trkpt lat="47.498262" lon="7.860571">
        <ele>549.291916</ele>
        <time>2021-11-07T10:32:34.611Z</time>
      </trkpt>
      <trkpt lat="47.498026" lon="7.859791">
        <ele>553.690930</ele>
        <time>2021-11-07T10:32:58.831Z</time>
      </trkpt>
      <trkpt lat="47.497901" lon="7.859533">
        <ele>555.483940</ele>
        <time>2021-11-07T10:33:09.306Z</time>
      </trkpt>
      <trkpt lat="47.497833" lon="7.859414">
        <ele>556.364154</ele>
        <time>2021-11-07T10:33:15.244Z</time>
      </trkpt>
      <trkpt lat="47.497149" lon="7.858438">
        <ele>564.306128</ele>
        <time>2021-11-07T10:34:05.126Z</time>
      </trkpt>
      <trkpt lat="47.497045" lon="7.858131">
        <ele>565.617792</ele>
        <time>2021-11-07T10:34:17.627Z</time>
      </trkpt>
      <trkpt lat="47.496867" lon="7.857284">
        <ele>568.394169</ele>
        <time>2021-11-07T10:34:44.053Z</time>
      </trkpt>
      <trkpt lat="47.496570" lon="7.856657">
        <ele>570.790946</ele>
        <time>2021-11-07T10:34:59.650Z</time>
      </trkpt>
      <trkpt lat="47.495985" lon="7.856090">
        <ele>572.402304</ele>
        <time>2021-11-07T10:35:13.189Z</time>
      </trkpt>
      <trkpt lat="47.495858" lon="7.856018">
        <ele>571.840569</ele>
        <time>2021-11-07T10:35:14.598Z</time>
      </trkpt>
      <trkpt lat="47.495761" lon="7.855963">
        <ele>571.411519</ele>
        <time>2021-11-07T10:35:15.889Z</time>
      </trkpt>
      <trkpt lat="47.495682" lon="7.855928">
        <ele>571.070906</ele>
        <time>2021-11-07T10:35:17.593Z</time>
      </trkpt>
      <trkpt lat="47.495742" lon="7.855769">
        <ele>570.562662</ele>
        <time>2021-11-07T10:35:19.218Z</time>
      </trkpt>
      <trkpt lat="47.495962" lon="7.855400">
        <ele>569.189278</ele>
        <time>2021-11-07T10:35:24.061Z</time>
      </trkpt>
      <trkpt lat="47.496291" lon="7.855054">
        <ele>567.522236</ele>
        <time>2021-11-07T10:35:29.506Z</time>
      </trkpt>
      <trkpt lat="47.497386" lon="7.854753">
        <ele>559.116067</ele>
        <time>2021-11-07T10:35:43.322Z</time>
      </trkpt>
      <trkpt lat="47.497996" lon="7.854842">
        <ele>553.165395</ele>
        <time>2021-11-07T10:35:50.727Z</time>
      </trkpt>
      <trkpt lat="47.498034" lon="7.854847">
        <ele>552.795030</ele>
        <time>2021-11-07T10:35:51.160Z</time>
      </trkpt>
      <trkpt lat="47.498061" lon="7.854851">
        <ele>552.531601</ele>
        <time>2021-11-07T10:35:51.503Z</time>
      </trkpt>
      <trkpt lat="47.498499" lon="7.854914">
        <ele>548.261156</ele>
        <time>2021-11-07T10:35:56.924Z</time>
      </trkpt>
      <trkpt lat="47.498600" lon="7.854805">
        <ele>547.156364</ele>
        <time>2021-11-07T10:35:58.509Z</time>
      </trkpt>
      <trkpt lat="47.498642" lon="7.854963">
        <ele>546.142475</ele>
        <time>2021-11-07T10:35:59.468Z</time>
      </trkpt>
      <trkpt lat="47.498848" lon="7.855677">
        <ele>541.506384</ele>
        <time>2021-11-07T10:36:04.049Z</time>
      </trkpt>
      <trkpt lat="47.498875" lon="7.855772">
        <ele>540.890949</ele>
        <time>2021-11-07T10:36:08.412Z</time>
      </trkpt>
      <trkpt lat="47.498905" lon="7.855828">
        <ele>540.464181</ele>
        <time>2021-11-07T10:36:11.174Z</time>
      </trkpt>
      <trkpt lat="47.498960" lon="7.855868">
        <ele>539.922546</ele>
        <time>2021-11-07T10:36:14.767Z</time>
      </trkpt>
      <trkpt lat="47.499232" lon="7.855857">
        <ele>537.517549</ele>
        <time>2021-11-07T10:36:31.409Z</time>
      </trkpt>
      <trkpt lat="47.499544" lon="7.855820">
        <ele>534.751069</ele>
        <time>2021-11-07T10:36:50.841Z</time>
      </trkpt>
      <trkpt lat="47.499700" lon="7.855802">
        <ele>533.368064</ele>
        <time>2021-11-07T10:36:52.173Z</time>
      </trkpt>
      <trkpt lat="47.500632" lon="7.855725">
        <ele>526.399337</ele>
        <time>2021-11-07T10:37:00.684Z</time>
      </trkpt>
      <trkpt lat="47.500812" lon="7.855849">
        <ele>524.954158</ele>
        <time>2021-11-07T10:37:02.449Z</time>
      </trkpt>
      <trkpt lat="47.500894" lon="7.856045">
        <ele>523.820460</ele>
        <time>2021-11-07T10:37:03.866Z</time>
      </trkpt>
      <trkpt lat="47.500905" lon="7.856254">
        <ele>522.789571</ele>
        <time>2021-11-07T10:37:05.092Z</time>
      </trkpt>
      <trkpt lat="47.500847" lon="7.856456">
        <ele>521.710224</ele>
        <time>2021-11-07T10:37:06.400Z</time>
      </trkpt>
      <trkpt lat="47.500470" lon="7.856948">
        <ele>518.184263</ele>
        <time>2021-11-07T10:37:10.860Z</time>
      </trkpt>
      <trkpt lat="47.499945" lon="7.858239">
        <ele>511.567801</ele>
        <time>2021-11-07T10:37:19.984Z</time>
      </trkpt>
      <trkpt lat="47.499947" lon="7.858444">
        <ele>510.667558</ele>
        <time>2021-11-07T10:37:21.259Z</time>
      </trkpt>
      <trkpt lat="47.500121" lon="7.858790">
        <ele>508.773583</ele>
        <time>2021-11-07T10:37:23.956Z</time>
      </trkpt>
      <trkpt lat="47.500308" lon="7.859014">
        <ele>507.493888</ele>
        <time>2021-11-07T10:37:26.220Z</time>
      </trkpt>
      <trkpt lat="47.500554" lon="7.859163">
        <ele>507.027510</ele>
        <time>2021-11-07T10:37:28.827Z</time>
      </trkpt>
      <trkpt lat="47.500617" lon="7.859213">
        <ele>506.902081</ele>
        <time>2021-11-07T10:37:29.497Z</time>
      </trkpt>
      <trkpt lat="47.501067" lon="7.859416">
        <ele>506.076643</ele>
        <time>2021-11-07T10:37:34.516Z</time>
      </trkpt>
      <trkpt lat="47.501074" lon="7.859265">
        <ele>505.897228</ele>
        <time>2021-11-07T10:37:35.663Z</time>
      </trkpt>
      <trkpt lat="47.501222" lon="7.859023">
        <ele>505.510282</ele>
        <time>2021-11-07T10:37:38.444Z</time>
      </trkpt>
      <trkpt lat="47.501695" lon="7.858821">
        <ele>504.646491</ele>
        <time>2021-11-07T10:37:45.527Z</time>
      </trkpt>
      <trkpt lat="47.501745" lon="7.858800">
        <ele>504.555296</ele>
        <time>2021-11-07T10:37:46.556Z</time>
      </trkpt>
      <trkpt lat="47.501941" lon="7.858541">
        <ele>505.045580</ele>
        <time>2021-11-07T10:37:51.593Z</time>
      </trkpt>
      <trkpt lat="47.502012" lon="7.858429">
        <ele>505.360335</ele>
        <time>2021-11-07T10:37:53.776Z</time>
      </trkpt>
      <trkpt lat="47.502098" lon="7.858365">
        <ele>505.652331</ele>
        <time>2021-11-07T10:37:56.613Z</time>
      </trkpt>
      <trkpt lat="47.502370" lon="7.858325">
        <ele>506.481510</ele>
        <time>2021-11-07T10:38:02.687Z</time>
      </trkpt>
      <trkpt lat="47.502730" lon="7.858414">
        <ele>507.588701</ele>
        <time>2021-11-07T10:38:12.763Z</time>
      </trkpt>
      <trkpt lat="47.503054" lon="7.858486">
        <ele>508.582574</ele>
        <time>2021-11-07T10:38:22.570Z</time>
      </trkpt>
      <trkpt lat="47.503214" lon="7.858549">
        <ele>509.084814</ele>
        <time>2021-11-07T10:38:28.279Z</time>
      </trkpt>
      <trkpt lat="47.503620" lon="7.858630">
        <ele>510.729173</ele>
        <time>2021-11-07T10:38:42.157Z</time>
      </trkpt>
      <trkpt lat="47.504015" lon="7.858630">
        <ele>513.050600</ele>
        <time>2021-11-07T10:38:55.628Z</time>
      </trkpt>
      <trkpt lat="47.504294" lon="7.858599">
        <ele>514.694903</ele>
        <time>2021-11-07T10:39:05.831Z</time>
      </trkpt>
      <trkpt lat="47.504687" lon="7.858450">
        <ele>517.079125</ele>
        <time>2021-11-07T10:39:22.357Z</time>
      </trkpt>
      <trkpt lat="47.504984" lon="7.858103">
        <ele>519.302757</ele>
        <time>2021-11-07T10:39:38.414Z</time>
      </trkpt>
      <trkpt lat="47.505245" lon="7.857209">
        <ele>523.244187</ele>
        <time>2021-11-07T10:40:06.174Z</time>
      </trkpt>
      <trkpt lat="47.505447" lon="7.856380">
        <ele>526.840010</ele>
        <time>2021-11-07T10:40:31.366Z</time>
      </trkpt>
      <trkpt lat="47.505617" lon="7.855726">
        <ele>529.699204</ele>
        <time>2021-11-07T10:40:48.744Z</time>
      </trkpt>
      <trkpt lat="47.505686" lon="7.855207">
        <ele>531.569196</ele>
        <time>2021-11-07T10:41:01.305Z</time>
      </trkpt>
      <trkpt lat="47.505681" lon="7.855111">
        <ele>531.745813</ele>
        <time>2021-11-07T10:41:03.868Z</time>
      </trkpt>
      <trkpt lat="47.505666" lon="7.854987">
        <ele>531.976887</ele>
        <time>2021-11-07T10:41:06.920Z</time>
      </trkpt>
      <trkpt lat="47.505360" lon="7.853789">
        <ele>534.326253</ele>
        <time>2021-11-07T10:41:28.706Z</time>
      </trkpt>
      <trkpt lat="47.505250" lon="7.853383">
        <ele>535.128659</ele>
        <time>2021-11-07T10:41:34.651Z</time>
      </trkpt>
      <trkpt lat="47.505215" lon="7.852914">
        <ele>535.994195</ele>
        <time>2021-11-07T10:41:41.822Z</time>
      </trkpt>
      <trkpt lat="47.505145" lon="7.852200">
        <ele>536.887181</ele>
        <time>2021-11-07T10:41:51.684Z</time>
      </trkpt>
      <trkpt lat="47.504980" lon="7.851535">
        <ele>537.678071</ele>
        <time>2021-11-07T10:42:01.558Z</time>
      </trkpt>
      <trkpt lat="47.504903" lon="7.851306">
        <ele>537.963642</ele>
        <time>2021-11-07T10:42:04.680Z</time>
      </trkpt>
      <trkpt lat="47.504851" lon="7.851192">
        <ele>538.117207</ele>
        <time>2021-11-07T10:42:07.241Z</time>
      </trkpt>
      <trkpt lat="47.504672" lon="7.850987">
        <ele>538.491220</ele>
        <time>2021-11-07T10:42:11.441Z</time>
      </trkpt>
      <trkpt lat="47.504357" lon="7.850973">
        <ele>539.012029</ele>
        <time>2021-11-07T10:42:18.541Z</time>
      </trkpt>
      <trkpt lat="47.504239" lon="7.850874">
        <ele>539.236844</ele>
        <time>2021-11-07T10:42:21.721Z</time>
      </trkpt>
      <trkpt lat="47.503893" lon="7.849807">
        <ele>540.577316</ele>
        <time>2021-11-07T10:42:41.783Z</time>
      </trkpt>
      <trkpt lat="47.503641" lon="7.848945">
        <ele>541.641096</ele>
        <time>2021-11-07T10:42:56.022Z</time>
      </trkpt>
      <trkpt lat="47.503484" lon="7.848394">
        <ele>542.190686</ele>
        <time>2021-11-07T10:43:03.166Z</time>
      </trkpt>
      <trkpt lat="47.503091" lon="7.847553">
        <ele>542.034794</ele>
        <time>2021-11-07T10:43:12.249Z</time>
      </trkpt>
      <trkpt lat="47.503052" lon="7.847473">
        <ele>542.019754</ele>
        <time>2021-11-07T10:43:13.987Z</time>
      </trkpt>
      <trkpt lat="47.503023" lon="7.847369">
        <ele>542.002602</ele>
        <time>2021-11-07T10:43:14.776Z</time>
      </trkpt>
      <trkpt lat="47.503044" lon="7.846999">
        <ele>541.945998</ele>
        <time>2021-11-07T10:43:18.264Z</time>
      </trkpt>
      <trkpt lat="47.503134" lon="7.846872">
        <ele>541.917939</ele>
        <time>2021-11-07T10:43:19.783Z</time>
      </trkpt>
      <trkpt lat="47.503256" lon="7.846808">
        <ele>541.888730</ele>
        <time>2021-11-07T10:43:21.262Z</time>
      </trkpt>
      <trkpt lat="47.503628" lon="7.846708">
        <ele>541.803410</ele>
        <time>2021-11-07T10:43:26.198Z</time>
      </trkpt>
      <trkpt lat="47.504232" lon="7.846590">
        <ele>543.522629</ele>
        <time>2021-11-07T10:43:34.832Z</time>
      </trkpt>
      <trkpt lat="47.504599" lon="7.846703">
        <ele>544.609954</ele>
        <time>2021-11-07T10:43:45.060Z</time>
      </trkpt>
      <trkpt lat="47.504849" lon="7.846705">
        <ele>545.335129</ele>
        <time>2021-11-07T10:43:51.355Z</time>
      </trkpt>
      <trkpt lat="47.505754" lon="7.846083">
        <ele>549.759201</ele>
        <time>2021-11-07T10:44:29.732Z</time>
      </trkpt>
      <trkpt lat="47.505835" lon="7.845960">
        <ele>550.520583</ele>
        <time>2021-11-07T10:44:35.438Z</time>
      </trkpt>
      <trkpt lat="47.505847" lon="7.845902">
        <ele>550.789450</ele>
        <time>2021-11-07T10:44:39.691Z</time>
      </trkpt>
      <trkpt lat="47.506032" lon="7.844375">
        <ele>557.665710</ele>
        <time>2021-11-07T10:45:47.672Z</time>
      </trkpt>
      <trkpt lat="47.506130" lon="7.843433">
        <ele>560.217376</ele>
        <time>2021-11-07T10:46:26.655Z</time>
      </trkpt>
      <trkpt lat="47.506150" lon="7.843312">
        <ele>560.468770</ele>
        <time>2021-11-07T10:46:29.398Z</time>
      </trkpt>
      <trkpt lat="47.506374" lon="7.841365">
        <ele>564.187429</ele>
        <time>2021-11-07T10:47:06.407Z</time>
      </trkpt>
      <trkpt lat="47.505959" lon="7.841291">
        <ele>564.163255</ele>
        <time>2021-11-07T10:47:14.866Z</time>
      </trkpt>
      <trkpt lat="47.505358" lon="7.841213">
        <ele>564.128366</ele>
        <time>2021-11-07T10:47:27.135Z</time>
      </trkpt>
      <trkpt lat="47.505239" lon="7.841203">
        <ele>564.121473</ele>
        <time>2021-11-07T10:47:29.301Z</time>
      </trkpt>
      <trkpt lat="47.504959" lon="7.841240">
        <ele>564.105216</ele>
        <time>2021-11-07T10:47:35.007Z</time>
      </trkpt>
      <trkpt lat="47.503768" lon="7.841356">
        <ele>561.656316</ele>
        <time>2021-11-07T10:47:54.906Z</time>
      </trkpt>
      <trkpt lat="47.503614" lon="7.841305">
        <ele>561.231871</ele>
        <time>2021-11-07T10:47:57.457Z</time>
      </trkpt>
      <trkpt lat="47.503565" lon="7.841261">
        <ele>561.077725</ele>
        <time>2021-11-07T10:47:58.312Z</time>
      </trkpt>
      <trkpt lat="47.503365" lon="7.840954">
        <ele>560.302788</ele>
        <time>2021-11-07T10:48:02.354Z</time>
      </trkpt>
      <trkpt lat="47.503247" lon="7.840737">
        <ele>559.796634</ele>
        <time>2021-11-07T10:48:05.027Z</time>
      </trkpt>
      <trkpt lat="47.503203" lon="7.840615">
        <ele>559.545348</ele>
        <time>2021-11-07T10:48:06.207Z</time>
      </trkpt>
      <trkpt lat="47.503029" lon="7.840222">
        <ele>558.017040</ele>
        <time>2021-11-07T10:48:10.513Z</time>
      </trkpt>
      <trkpt lat="47.502867" lon="7.839629">
        <ele>555.452791</ele>
        <time>2021-11-07T10:48:16.190Z</time>
      </trkpt>
      <trkpt lat="47.502712" lon="7.839407">
        <ele>554.172929</ele>
        <time>2021-11-07T10:48:19.092Z</time>
      </trkpt>
      <trkpt lat="47.502604" lon="7.839292">
        <ele>553.383453</ele>
        <time>2021-11-07T10:48:20.739Z</time>
      </trkpt>
      <trkpt lat="47.502464" lon="7.839247">
        <ele>552.533314</ele>
        <time>2021-11-07T10:48:22.613Z</time>
      </trkpt>
      <trkpt lat="47.502118" lon="7.839230">
        <ele>550.478972</ele>
        <time>2021-11-07T10:48:27.063Z</time>
      </trkpt>
      <trkpt lat="47.501875" lon="7.839304">
        <ele>549.006778</ele>
        <time>2021-11-07T10:48:30.304Z</time>
      </trkpt>
      <trkpt lat="47.500610" lon="7.840107">
        <ele>542.002003</ele>
        <time>2021-11-07T10:48:48.631Z</time>
      </trkpt>
      <trkpt lat="47.500490" lon="7.840175">
        <ele>541.354108</ele>
        <time>2021-11-07T10:48:50.373Z</time>
      </trkpt>
      <trkpt lat="47.500334" lon="7.840257">
        <ele>540.519391</ele>
        <time>2021-11-07T10:48:52.755Z</time>
      </trkpt>
      <trkpt lat="47.499541" lon="7.840552">
        <ele>537.667805</ele>
        <time>2021-11-07T10:49:04.580Z</time>
      </trkpt>
      <trkpt lat="47.499316" lon="7.840601">
        <ele>536.989585</ele>
        <time>2021-11-07T10:49:07.917Z</time>
      </trkpt>
      <trkpt lat="47.499138" lon="7.840659">
        <ele>536.446043</ele>
        <time>2021-11-07T10:49:10.653Z</time>
      </trkpt>
      <trkpt lat="47.498763" lon="7.840766">
        <ele>535.307127</ele>
        <time>2021-11-07T10:49:16.632Z</time>
      </trkpt>
      <trkpt lat="47.498156" lon="7.841079">
        <ele>532.942135</ele>
        <time>2021-11-07T10:49:26.420Z</time>
      </trkpt>
      <trkpt lat="47.497488" lon="7.841201">
        <ele>529.742049</ele>
        <time>2021-11-07T10:49:35.876Z</time>
      </trkpt>
      <trkpt lat="47.497385" lon="7.841209">
        <ele>529.251663</ele>
        <time>2021-11-07T10:49:37.265Z</time>
      </trkpt>
      <trkpt lat="47.497204" lon="7.841203">
        <ele>528.390885</ele>
        <time>2021-11-07T10:49:39.676Z</time>
      </trkpt>
      <trkpt lat="47.496881" lon="7.840859">
        <ele>526.498943</ele>
        <time>2021-11-07T10:49:44.907Z</time>
      </trkpt>
      <trkpt lat="47.496495" lon="7.840384">
        <ele>523.133588</ele>
        <time>2021-11-07T10:49:51.359Z</time>
      </trkpt>
      <trkpt lat="47.496134" lon="7.839925">
        <ele>519.374932</ele>
        <time>2021-11-07T10:49:57.354Z</time>
      </trkpt>
      <trkpt lat="47.495801" lon="7.839499">
        <ele>515.898737</ele>
        <time>2021-11-07T10:50:02.818Z</time>
      </trkpt>
      <trkpt lat="47.495494" lon="7.839107">
        <ele>512.696524</ele>
        <time>2021-11-07T10:50:07.836Z</time>
      </trkpt>
      <trkpt lat="47.494823" lon="7.838533">
        <ele>507.380728</ele>
        <time>2021-11-07T10:50:17.606Z</time>
      </trkpt>
      <trkpt lat="47.494673" lon="7.838344">
        <ele>506.085227</ele>
        <time>2021-11-07T10:50:20.234Z</time>
      </trkpt>
      <trkpt lat="47.494626" lon="7.838257">
        <ele>505.590281</ele>
        <time>2021-11-07T10:50:21.139Z</time>
      </trkpt>
      <trkpt lat="47.494536" lon="7.837978">
        <ele>504.216546</ele>
        <time>2021-11-07T10:50:23.968Z</time>
      </trkpt>
      <trkpt lat="47.494516" lon="7.837806">
        <ele>503.441054</ele>
        <time>2021-11-07T10:50:25.481Z</time>
      </trkpt>
      <trkpt lat="47.494593" lon="7.837800">
        <ele>502.933977</ele>
        <time>2021-11-07T10:50:26.464Z</time>
      </trkpt>
      <trkpt lat="47.494701" lon="7.837752">
        <ele>502.192403</ele>
        <time>2021-11-07T10:50:28.049Z</time>
      </trkpt>
      <trkpt lat="47.494860" lon="7.837661">
        <ele>501.071314</ele>
        <time>2021-11-07T10:50:30.301Z</time>
      </trkpt>
      <trkpt lat="47.495516" lon="7.837485">
        <ele>497.708058</ele>
        <time>2021-11-07T10:50:39.438Z</time>
      </trkpt>
      <trkpt lat="47.495686" lon="7.837455">
        <ele>496.982474</ele>
        <time>2021-11-07T10:50:41.594Z</time>
      </trkpt>
      <trkpt lat="47.496083" lon="7.837670">
        <ele>495.190841</ele>
        <time>2021-11-07T10:50:47.511Z</time>
      </trkpt>
      <trkpt lat="47.496520" lon="7.837694">
        <ele>493.337505</ele>
        <time>2021-11-07T10:50:53.714Z</time>
      </trkpt>
      <trkpt lat="47.496868" lon="7.837844">
        <ele>491.863240</ele>
        <time>2021-11-07T10:50:58.876Z</time>
      </trkpt>
      <trkpt lat="47.496962" lon="7.837850">
        <ele>491.647714</ele>
        <time>2021-11-07T10:51:00.537Z</time>
      </trkpt>
      <trkpt lat="47.497006" lon="7.837744">
        <ele>491.455173</ele>
        <time>2021-11-07T10:51:01.649Z</time>
      </trkpt>
      <trkpt lat="47.497050" lon="7.837488">
        <ele>491.046353</ele>
        <time>2021-11-07T10:51:04.635Z</time>
      </trkpt>
      <trkpt lat="47.496981" lon="7.836871">
        <ele>490.078453</ele>
        <time>2021-11-07T10:51:11.556Z</time>
      </trkpt>
      <trkpt lat="47.497024" lon="7.836771">
        <ele>489.895001</ele>
        <time>2021-11-07T10:51:12.749Z</time>
      </trkpt>
      <trkpt lat="47.497283" lon="7.836569">
        <ele>489.224382</ele>
        <time>2021-11-07T10:51:17.882Z</time>
      </trkpt>
      <trkpt lat="47.497488" lon="7.836415">
        <ele>488.697767</ele>
        <time>2021-11-07T10:51:21.427Z</time>
      </trkpt>
      <trkpt lat="47.497663" lon="7.836246">
        <ele>488.219115</ele>
        <time>2021-11-07T10:51:25.414Z</time>
      </trkpt>
      <trkpt lat="47.498371" lon="7.835942">
        <ele>484.830768</ele>
        <time>2021-11-07T10:51:35.802Z</time>
      </trkpt>
      <trkpt lat="47.499070" lon="7.835763">
        <ele>481.057136</ele>
        <time>2021-11-07T10:51:45.501Z</time>
      </trkpt>
      <trkpt lat="47.499117" lon="7.835753">
        <ele>480.804546</ele>
        <time>2021-11-07T10:51:46.183Z</time>
      </trkpt>
      <trkpt lat="47.499268" lon="7.835669">
        <ele>479.946432</ele>
        <time>2021-11-07T10:51:48.415Z</time>
      </trkpt>
      <trkpt lat="47.499349" lon="7.835598">
        <ele>479.445658</ele>
        <time>2021-11-07T10:51:49.530Z</time>
      </trkpt>
      <trkpt lat="47.499509" lon="7.835360">
        <ele>478.227327</ele>
        <time>2021-11-07T10:51:52.621Z</time>
      </trkpt>
      <trkpt lat="47.499840" lon="7.834402">
        <ele>469.257126</ele>
        <time>2021-11-07T10:52:01.342Z</time>
      </trkpt>
      <trkpt lat="47.499905" lon="7.833427">
        <ele>461.089575</ele>
        <time>2021-11-07T10:52:09.081Z</time>
      </trkpt>
      <trkpt lat="47.499893" lon="7.833272">
        <ele>459.788963</ele>
        <time>2021-11-07T10:52:10.370Z</time>
      </trkpt>
      <trkpt lat="47.499956" lon="7.833147">
        <ele>458.488877</ele>
        <time>2021-11-07T10:52:11.581Z</time>
      </trkpt>
      <trkpt lat="47.500316" lon="7.832383">
        <ele>450.032595</ele>
        <time>2021-11-07T10:52:19.076Z</time>
      </trkpt>
      <trkpt lat="47.500938" lon="7.831417">
        <ele>437.465415</ele>
        <time>2021-11-07T10:52:29.564Z</time>
      </trkpt>
      <trkpt lat="47.501317" lon="7.830941">
        <ele>430.646040</ele>
        <time>2021-11-07T10:52:35.465Z</time>
      </trkpt>
      <trkpt lat="47.501426" lon="7.830651">
        <ele>428.288918</ele>
        <time>2021-11-07T10:52:38.179Z</time>
      </trkpt>
      <trkpt lat="47.501508" lon="7.830397">
        <ele>426.289420</ele>
        <time>2021-11-07T10:52:40.446Z</time>
      </trkpt>
      <trkpt lat="47.501570" lon="7.830119">
        <ele>424.210055</ele>
        <time>2021-11-07T10:52:42.823Z</time>
      </trkpt>
      <trkpt lat="47.501872" lon="7.828923">
        <ele>415.141255</ele>
        <time>2021-11-07T10:52:53.282Z</time>
      </trkpt>
      <trkpt lat="47.501916" lon="7.828447">
        <ele>411.866800</ele>
        <time>2021-11-07T10:52:57.314Z</time>
      </trkpt>
      <trkpt lat="47.501935" lon="7.828179">
        <ele>410.724839</ele>
        <time>2021-11-07T10:52:59.601Z</time>
      </trkpt>
      <trkpt lat="47.501972" lon="7.827862">
        <ele>409.361562</ele>
        <time>2021-11-07T10:53:02.432Z</time>
      </trkpt>
      <trkpt lat="47.502031" lon="7.827633">
        <ele>408.322933</ele>
        <time>2021-11-07T10:53:04.626Z</time>
      </trkpt>
      <trkpt lat="47.502306" lon="7.827173">
        <ele>405.719885</ele>
        <time>2021-11-07T10:53:10.018Z</time>
      </trkpt>
      <trkpt lat="47.502694" lon="7.826607">
        <ele>402.302732</ele>
        <time>2021-11-07T10:53:17.147Z</time>
      </trkpt>
      <trkpt lat="47.503059" lon="7.826259">
        <ele>400.319683</ele>
        <time>2021-11-07T10:53:23.096Z</time>
      </trkpt>
      <trkpt lat="47.503196" lon="7.826042">
        <ele>399.832002</ele>
        <time>2021-11-07T10:53:26.278Z</time>
      </trkpt>
      <trkpt lat="47.503225" lon="7.825979">
        <ele>399.706827</ele>
        <time>2021-11-07T10:53:26.941Z</time>
      </trkpt>
      <trkpt lat="47.503231" lon="7.825900">
        <ele>399.576295</ele>
        <time>2021-11-07T10:53:27.738Z</time>
      </trkpt>
      <trkpt lat="47.503225" lon="7.825809">
        <ele>399.426167</ele>
        <time>2021-11-07T10:53:28.659Z</time>
      </trkpt>
      <trkpt lat="47.503509" lon="7.825771">
        <ele>398.733076</ele>
        <time>2021-11-07T10:53:31.669Z</time>
      </trkpt>
      <trkpt lat="47.503860" lon="7.825735">
        <ele>397.877906</ele>
        <time>2021-11-07T10:53:35.497Z</time>
      </trkpt>
      <trkpt lat="47.504813" lon="7.825703">
        <ele>396.403930</ele>
        <time>2021-11-07T10:53:47.052Z</time>
      </trkpt>
      <trkpt lat="47.506147" lon="7.825028">
        <ele>396.354238</ele>
        <time>2021-11-07T10:54:10.146Z</time>
      </trkpt>
      <trkpt lat="47.507017" lon="7.824678">
        <ele>395.197222</ele>
        <time>2021-11-07T10:54:23.723Z</time>
      </trkpt>
      <trkpt lat="47.507990" lon="7.824326">
        <ele>393.578852</ele>
        <time>2021-11-07T10:54:34.506Z</time>
      </trkpt>
      <trkpt lat="47.508288" lon="7.824180">
        <ele>391.861249</ele>
        <time>2021-11-07T10:54:37.588Z</time>
      </trkpt>
      <trkpt lat="47.509075" lon="7.823456">
        <ele>386.791138</ele>
        <time>2021-11-07T10:54:46.115Z</time>
      </trkpt>
      <trkpt lat="47.509744" lon="7.823275">
        <ele>383.043851</ele>
        <time>2021-11-07T10:54:52.190Z</time>
      </trkpt>
      <trkpt lat="47.510203" lon="7.823212">
        <ele>380.458333</ele>
        <time>2021-11-07T10:54:56.410Z</time>
      </trkpt>
      <trkpt lat="47.510706" lon="7.823221">
        <ele>377.636859</ele>
        <time>2021-11-07T10:55:01.051Z</time>
      </trkpt>
      <trkpt lat="47.511863" lon="7.823271">
        <ele>372.829479</ele>
        <time>2021-11-07T10:55:12.094Z</time>
      </trkpt>
      <trkpt lat="47.512067" lon="7.823229">
        <ele>372.351573</ele>
        <time>2021-11-07T10:55:14.310Z</time>
      </trkpt>
      <trkpt lat="47.512263" lon="7.823167">
        <ele>371.886520</ele>
        <time>2021-11-07T10:55:16.443Z</time>
      </trkpt>
      <trkpt lat="47.512648" lon="7.822935">
        <ele>370.922025</ele>
        <time>2021-11-07T10:55:21.270Z</time>
      </trkpt>
      <trkpt lat="47.513483" lon="7.822231">
        <ele>369.206554</ele>
        <time>2021-11-07T10:55:34.279Z</time>
      </trkpt>
      <trkpt lat="47.514302" lon="7.821660">
        <ele>368.043178</ele>
        <time>2021-11-07T10:55:45.765Z</time>
      </trkpt>
      <trkpt lat="47.514708" lon="7.821376">
        <ele>367.305655</ele>
        <time>2021-11-07T10:55:50.413Z</time>
      </trkpt>
      <trkpt lat="47.514821" lon="7.821292">
        <ele>366.755226</ele>
        <time>2021-11-07T10:55:51.748Z</time>
      </trkpt>
      <trkpt lat="47.515036" lon="7.821090">
        <ele>365.646755</ele>
        <time>2021-11-07T10:55:54.259Z</time>
      </trkpt>
      <trkpt lat="47.515202" lon="7.820909">
        <ele>364.749317</ele>
        <time>2021-11-07T10:55:56.333Z</time>
      </trkpt>
      <trkpt lat="47.515268" lon="7.820836">
        <ele>364.390690</ele>
        <time>2021-11-07T10:55:57.084Z</time>
      </trkpt>
      <trkpt lat="47.515469" lon="7.820644">
        <ele>363.349403</ele>
        <time>2021-11-07T10:55:59.458Z</time>
      </trkpt>
      <trkpt lat="47.515587" lon="7.820532">
        <ele>362.739241</ele>
        <time>2021-11-07T10:56:00.739Z</time>
      </trkpt>
      <trkpt lat="47.516786" lon="7.819655">
        <ele>357.390957</ele>
        <time>2021-11-07T10:56:13.195Z</time>
      </trkpt>
      <trkpt lat="47.517657" lon="7.818442">
        <ele>353.130476</ele>
        <time>2021-11-07T10:56:25.613Z</time>
      </trkpt>
      <trkpt lat="47.518035" lon="7.818005">
        <ele>352.178615</ele>
        <time>2021-11-07T10:56:31.004Z</time>
      </trkpt>
      <trkpt lat="47.518220" lon="7.817823">
        <ele>351.737766</ele>
        <time>2021-11-07T10:56:33.537Z</time>
      </trkpt>
      <trkpt lat="47.518481" lon="7.817598">
        <ele>351.138326</ele>
        <time>2021-11-07T10:56:36.987Z</time>
      </trkpt>
      <trkpt lat="47.518941" lon="7.817228">
        <ele>350.099295</ele>
        <time>2021-11-07T10:56:42.783Z</time>
      </trkpt>
      <trkpt lat="47.519453" lon="7.816861">
        <ele>348.722868</ele>
        <time>2021-11-07T10:56:48.974Z</time>
      </trkpt>
      <trkpt lat="47.519807" lon="7.816661">
        <ele>347.690542</ele>
        <time>2021-11-07T10:56:52.910Z</time>
      </trkpt>
      <trkpt lat="47.519959" lon="7.816575">
        <ele>347.247203</ele>
        <time>2021-11-07T10:56:54.644Z</time>
      </trkpt>
      <trkpt lat="47.520002" lon="7.816556">
        <ele>347.124941</ele>
        <time>2021-11-07T10:56:55.088Z</time>
      </trkpt>
      <trkpt lat="47.520578" lon="7.816306">
        <ele>345.489551</ele>
        <time>2021-11-07T10:57:01.214Z</time>
      </trkpt>
      <trkpt lat="47.521028" lon="7.816163">
        <ele>344.237669</ele>
        <time>2021-11-07T10:57:05.940Z</time>
      </trkpt>
      <trkpt lat="47.521087" lon="7.816144">
        <ele>344.073854</ele>
        <time>2021-11-07T10:57:06.500Z</time>
      </trkpt>
      <trkpt lat="47.521199" lon="7.816108">
        <ele>343.762909</ele>
        <time>2021-11-07T10:57:07.703Z</time>
      </trkpt>
      <trkpt lat="47.521383" lon="7.816075">
        <ele>343.260049</ele>
        <time>2021-11-07T10:57:09.669Z</time>
      </trkpt>
      <trkpt lat="47.521699" lon="7.816019">
        <ele>342.396590</ele>
        <time>2021-11-07T10:57:12.957Z</time>
      </trkpt>
      <trkpt lat="47.521870" lon="7.815989">
        <ele>341.929404</ele>
        <time>2021-11-07T10:57:14.712Z</time>
      </trkpt>
      <trkpt lat="47.522090" lon="7.815952">
        <ele>341.328683</ele>
        <time>2021-11-07T10:57:17.200Z</time>
      </trkpt>
      <trkpt lat="47.523608" lon="7.815695">
        <ele>337.293382</ele>
        <time>2021-11-07T10:57:33.266Z</time>
      </trkpt>
      <trkpt lat="47.523730" lon="7.815653">
        <ele>336.967559</ele>
        <time>2021-11-07T10:57:34.577Z</time>
      </trkpt>
      <trkpt lat="47.523757" lon="7.815629">
        <ele>336.885641</ele>
        <time>2021-11-07T10:57:34.860Z</time>
      </trkpt>
      <trkpt lat="47.523836" lon="7.814923">
        <ele>335.628553</ele>
        <time>2021-11-07T10:57:40.093Z</time>
      </trkpt>
      <trkpt lat="47.523994" lon="7.814691">
        <ele>335.070821</ele>
        <time>2021-11-07T10:57:42.381Z</time>
      </trkpt>
      <trkpt lat="47.524032" lon="7.814643">
        <ele>334.962804</ele>
        <time>2021-11-07T10:57:42.892Z</time>
      </trkpt>
      <trkpt lat="47.524286" lon="7.814362">
        <ele>334.277129</ele>
        <time>2021-11-07T10:57:46.225Z</time>
      </trkpt>
      <trkpt lat="47.524601" lon="7.814100">
        <ele>333.495796</ele>
        <time>2021-11-07T10:57:50.000Z</time>
      </trkpt>
      <trkpt lat="47.524645" lon="7.814069">
        <ele>333.390418</ele>
        <time>2021-11-07T10:57:50.526Z</time>
      </trkpt>
      <trkpt lat="47.524963" lon="7.813836">
        <ele>332.623120</ele>
        <time>2021-11-07T10:57:54.462Z</time>
      </trkpt>
      <trkpt lat="47.524982" lon="7.813822">
        <ele>332.577224</ele>
        <time>2021-11-07T10:57:54.702Z</time>
      </trkpt>
      <trkpt lat="47.525103" lon="7.813754">
        <ele>332.297334</ele>
        <time>2021-11-07T10:57:56.188Z</time>
      </trkpt>
      <trkpt lat="47.525265" lon="7.813766">
        <ele>331.946546</ele>
        <time>2021-11-07T10:57:57.907Z</time>
      </trkpt>
      <trkpt lat="47.525640" lon="7.813941">
        <ele>331.156949</ele>
        <time>2021-11-07T10:58:02.353Z</time>
      </trkpt>
      <trkpt lat="47.525829" lon="7.814027">
        <ele>330.866980</ele>
        <time>2021-11-07T10:58:04.663Z</time>
      </trkpt>
      <trkpt lat="47.525874" lon="7.814072">
        <ele>330.787348</ele>
        <time>2021-11-07T10:58:05.267Z</time>
      </trkpt>
      <trkpt lat="47.526135" lon="7.814494">
        <ele>330.220636</ele>
        <time>2021-11-07T10:58:09.711Z</time>
      </trkpt>
      <trkpt lat="47.526394" lon="7.814809">
        <ele>329.729122</ele>
        <time>2021-11-07T10:58:13.564Z</time>
      </trkpt>
      <trkpt lat="47.526478" lon="7.814853">
        <ele>329.598452</ele>
        <time>2021-11-07T10:58:14.584Z</time>
      </trkpt>
      <trkpt lat="47.526579" lon="7.814859">
        <ele>329.450210</ele>
        <time>2021-11-07T10:58:15.925Z</time>
      </trkpt>
      <trkpt lat="47.526655" lon="7.814822">
        <ele>329.332883</ele>
        <time>2021-11-07T10:58:16.843Z</time>
      </trkpt>
      <trkpt lat="47.526652" lon="7.814787">
        <ele>329.297945</ele>
        <time>2021-11-07T10:58:17.073Z</time>
      </trkpt>
      <trkpt lat="47.526761" lon="7.814473">
        <ele>328.948310</ele>
        <time>2021-11-07T10:58:19.858Z</time>
      </trkpt>
      <trkpt lat="47.526761" lon="7.814473">
        <ele>328.948310</ele>
        <time>2021-11-07T10:58:19.869Z</time>
      </trkpt>
      <trkpt lat="47.526761" lon="7.814473">
        <ele>328.948310</ele>
        <time>2021-11-07T10:58:19.869Z</time>
      </trkpt>
      <trkpt lat="47.527165" lon="7.813621">
        <ele>328.032789</ele>
        <time>2021-11-07T10:58:32.898Z</time>
      </trkpt>
      <trkpt lat="47.527570" lon="7.812768">
        <ele>327.163547</ele>
        <time>2021-11-07T10:58:45.948Z</time>
      </trkpt>
      <trkpt lat="47.527974" lon="7.811916">
        <ele>326.304500</ele>
        <time>2021-11-07T10:58:58.977Z</time>
      </trkpt>
      <trkpt lat="47.527992" lon="7.811882">
        <ele>326.270907</ele>
        <time>2021-11-07T10:58:59.931Z</time>
      </trkpt>
      <trkpt lat="47.528071" lon="7.811726">
        <ele>326.119288</ele>
        <time>2021-11-07T10:59:04.420Z</time>
      </trkpt>
      <trkpt lat="47.528166" lon="7.811494">
        <ele>325.908321</ele>
        <time>2021-11-07T10:59:10.439Z</time>
      </trkpt>
      <trkpt lat="47.528485" lon="7.810633">
        <ele>325.144705</ele>
        <time>2021-11-07T10:59:32.579Z</time>
      </trkpt>
      <trkpt lat="47.528551" lon="7.810479">
        <ele>325.002882</ele>
        <time>2021-11-07T10:59:36.506Z</time>
      </trkpt>
      <trkpt lat="47.528632" lon="7.810311">
        <ele>324.842374</ele>
        <time>2021-11-07T10:59:41.331Z</time>
      </trkpt>
      <trkpt lat="47.528791" lon="7.810026">
        <ele>324.554924</ele>
        <time>2021-11-07T10:59:44.192Z</time>
      </trkpt>
      <trkpt lat="47.529100" lon="7.809485">
        <ele>324.335166</ele>
        <time>2021-11-07T10:59:50.074Z</time>
      </trkpt>
      <trkpt lat="47.529208" lon="7.809338">
        <ele>324.325438</ele>
        <time>2021-11-07T10:59:51.865Z</time>
      </trkpt>
      <trkpt lat="47.529274" lon="7.809267">
        <ele>324.320028</ele>
        <time>2021-11-07T10:59:52.940Z</time>
      </trkpt>
      <trkpt lat="47.529336" lon="7.809212">
        <ele>324.315235</ele>
        <time>2021-11-07T10:59:54.332Z</time>
      </trkpt>
      <trkpt lat="47.529513" lon="7.809105">
        <ele>324.302556</ele>
        <time>2021-11-07T10:59:56.809Z</time>
      </trkpt>
      <trkpt lat="47.529594" lon="7.809061">
        <ele>324.296834</ele>
        <time>2021-11-07T10:59:57.930Z</time>
      </trkpt>
      <trkpt lat="47.529966" lon="7.808858">
        <ele>324.270541</ele>
        <time>2021-11-07T11:00:04.497Z</time>
      </trkpt>
      <trkpt lat="47.530041" lon="7.808819">
        <ele>324.265269</ele>
        <time>2021-11-07T11:00:06.069Z</time>
      </trkpt>
      <trkpt lat="47.530543" lon="7.808552">
        <ele>324.285155</ele>
        <time>2021-11-07T11:00:14.834Z</time>
      </trkpt>
      <trkpt lat="47.530585" lon="7.808529">
        <ele>324.308550</ele>
        <time>2021-11-07T11:00:15.584Z</time>
      </trkpt>
      <trkpt lat="47.530684" lon="7.808469">
        <ele>324.364437</ele>
        <time>2021-11-07T11:00:17.839Z</time>
      </trkpt>
      <trkpt lat="47.531066" lon="7.808197">
        <ele>324.585884</ele>
        <time>2021-11-07T11:00:25.354Z</time>
      </trkpt>
      <trkpt lat="47.531380" lon="7.807943">
        <ele>324.772812</ele>
        <time>2021-11-07T11:00:31.743Z</time>
      </trkpt>
      <trkpt lat="47.531735" lon="7.807655">
        <ele>324.984287</ele>
        <time>2021-11-07T11:00:38.715Z</time>
      </trkpt>
      <trkpt lat="47.532412" lon="7.807037">
        <ele>324.902060</ele>
        <time>2021-11-07T11:00:51.146Z</time>
      </trkpt>
      <trkpt lat="47.532581" lon="7.806843">
        <ele>324.765485</ele>
        <time>2021-11-07T11:00:54.105Z</time>
      </trkpt>
      <trkpt lat="47.532694" lon="7.806731">
        <ele>324.678635</ele>
        <time>2021-11-07T11:00:55.802Z</time>
      </trkpt>
      <trkpt lat="47.533030" lon="7.806474">
        <ele>324.437086</ele>
        <time>2021-11-07T11:01:00.384Z</time>
      </trkpt>
      <trkpt lat="47.533238" lon="7.806356">
        <ele>324.294814</ele>
        <time>2021-11-07T11:01:03.084Z</time>
      </trkpt>
      <trkpt lat="47.533510" lon="7.806214">
        <ele>324.110598</ele>
        <time>2021-11-07T11:01:06.460Z</time>
      </trkpt>
      <trkpt lat="47.533708" lon="7.806141">
        <ele>323.981191</ele>
        <time>2021-11-07T11:01:08.880Z</time>
      </trkpt>
      <trkpt lat="47.533860" lon="7.806084">
        <ele>323.883023</ele>
        <time>2021-11-07T11:01:10.789Z</time>
      </trkpt>
      <trkpt lat="47.534108" lon="7.806022">
        <ele>323.725556</ele>
        <time>2021-11-07T11:01:13.891Z</time>
      </trkpt>
      <trkpt lat="47.534411" lon="7.805959">
        <ele>323.533991</ele>
        <time>2021-11-07T11:01:17.749Z</time>
      </trkpt>
      <trkpt lat="47.534799" lon="7.805882">
        <ele>323.288897</ele>
        <time>2021-11-07T11:01:22.902Z</time>
      </trkpt>
      <trkpt lat="47.534917" lon="7.805854">
        <ele>323.214077</ele>
        <time>2021-11-07T11:01:24.498Z</time>
      </trkpt>
      <trkpt lat="47.534894" lon="7.805725">
        <ele>323.157679</ele>
        <time>2021-11-07T11:01:25.978Z</time>
      </trkpt>
      <trkpt lat="47.535092" lon="7.805671">
        <ele>323.031629</ele>
        <time>2021-11-07T11:01:30.212Z</time>
      </trkpt>
      <trkpt lat="47.535828" lon="7.805308">
        <ele>322.962530</ele>
        <time>2021-11-07T11:01:45.567Z</time>
      </trkpt>
      <trkpt lat="47.536875" lon="7.804558">
        <ele>323.089089</ele>
        <time>2021-11-07T11:02:11.152Z</time>
      </trkpt>
      <trkpt lat="47.537755" lon="7.803639">
        <ele>322.466574</ele>
        <time>2021-11-07T11:02:31.290Z</time>
      </trkpt>
      <trkpt lat="47.538164" lon="7.803170">
        <ele>322.143279</ele>
        <time>2021-11-07T11:02:40.436Z</time>
      </trkpt>
      <trkpt lat="47.538256" lon="7.803059">
        <ele>322.069114</ele>
        <time>2021-11-07T11:02:42.275Z</time>
      </trkpt>
      <trkpt lat="47.540006" lon="7.800680">
        <ele>320.357322</ele>
        <time>2021-11-07T11:03:23.168Z</time>
      </trkpt>
      <trkpt lat="47.540192" lon="7.800458">
        <ele>320.487311</ele>
        <time>2021-11-07T11:03:27.715Z</time>
      </trkpt>
      <trkpt lat="47.540260" lon="7.800353">
        <ele>320.540766</ele>
        <time>2021-11-07T11:03:30.780Z</time>
      </trkpt>
      <trkpt lat="47.540644" lon="7.800163">
        <ele>320.761087</ele>
        <time>2021-11-07T11:03:40.576Z</time>
      </trkpt>
      <trkpt lat="47.540897" lon="7.800171">
        <ele>320.898801</ele>
        <time>2021-11-07T11:03:46.742Z</time>
      </trkpt>
      <trkpt lat="47.541705" lon="7.800028">
        <ele>321.039996</ele>
        <time>2021-11-07T11:04:08.515Z</time>
      </trkpt>
      <trkpt lat="47.542307" lon="7.799830">
        <ele>320.944892</ele>
        <time>2021-11-07T11:04:23.488Z</time>
      </trkpt>
      <trkpt lat="47.542998" lon="7.799859">
        <ele>320.838280</ele>
        <time>2021-11-07T11:04:35.717Z</time>
      </trkpt>
      <trkpt lat="47.544071" lon="7.799629">
        <ele>315.664353</ele>
        <time>2021-11-07T11:04:50.640Z</time>
      </trkpt>
      <trkpt lat="47.544184" lon="7.799620">
        <ele>315.094337</ele>
        <time>2021-11-07T11:04:52.028Z</time>
      </trkpt>
      <trkpt lat="47.544345" lon="7.799570">
        <ele>314.265735</ele>
        <time>2021-11-07T11:04:54.223Z</time>
      </trkpt>
      <trkpt lat="47.544568" lon="7.799371">
        <ele>312.954410</ele>
        <time>2021-11-07T11:04:57.580Z</time>
      </trkpt>
      <trkpt lat="47.544749" lon="7.799388">
        <ele>312.040862</ele>
        <time>2021-11-07T11:05:00.022Z</time>
      </trkpt>
      <trkpt lat="47.544827" lon="7.799356">
        <ele>311.632426</ele>
        <time>2021-11-07T11:05:01.004Z</time>
      </trkpt>
      <trkpt lat="47.545096" lon="7.799250">
        <ele>310.222552</ele>
        <time>2021-11-07T11:05:04.724Z</time>
      </trkpt>
      <trkpt lat="47.545182" lon="7.799205">
        <ele>309.760586</ele>
        <time>2021-11-07T11:05:05.821Z</time>
      </trkpt>
      <trkpt lat="47.545396" lon="7.798977">
        <ele>308.425470</ele>
        <time>2021-11-07T11:05:09.362Z</time>
      </trkpt>
      <trkpt lat="47.545449" lon="7.798705">
        <ele>307.457548</ele>
        <time>2021-11-07T11:05:11.763Z</time>
      </trkpt>
      <trkpt lat="47.545511" lon="7.798680">
        <ele>307.132090</ele>
        <time>2021-11-07T11:05:12.594Z</time>
      </trkpt>
      <trkpt lat="47.545581" lon="7.798713">
        <ele>306.760018</ele>
        <time>2021-11-07T11:05:13.632Z</time>
      </trkpt>
      <trkpt lat="47.545731" lon="7.798810">
        <ele>305.931035</ele>
        <time>2021-11-07T11:05:15.839Z</time>
      </trkpt>
      <trkpt lat="47.545807" lon="7.798846">
        <ele>305.526893</ele>
        <time>2021-11-07T11:05:16.946Z</time>
      </trkpt>
      <trkpt lat="47.546418" lon="7.798980">
        <ele>302.593006</ele>
        <time>2021-11-07T11:05:25.794Z</time>
      </trkpt>
      <trkpt lat="47.547540" lon="7.799538">
        <ele>301.074326</ele>
        <time>2021-11-07T11:05:45.518Z</time>
      </trkpt>
      <trkpt lat="47.547912" lon="7.799646">
        <ele>300.587905</ele>
        <time>2021-11-07T11:05:52.898Z</time>
      </trkpt>
      <trkpt lat="47.548459" lon="7.799691">
        <ele>300.317677</ele>
        <time>2021-11-07T11:06:03.836Z</time>
      </trkpt>
      <trkpt lat="47.548535" lon="7.799720">
        <ele>300.310468</ele>
        <time>2021-11-07T11:06:05.356Z</time>
      </trkpt>
      <trkpt lat="47.548514" lon="7.799795">
        <ele>300.305433</ele>
        <time>2021-11-07T11:06:06.420Z</time>
      </trkpt>
      <trkpt lat="47.548519" lon="7.799896">
        <ele>300.299154</ele>
        <time>2021-11-07T11:06:07.775Z</time>
      </trkpt>
      <trkpt lat="47.548545" lon="7.800404">
        <ele>300.267565</ele>
        <time>2021-11-07T11:06:14.566Z</time>
      </trkpt>
      <trkpt lat="47.548560" lon="7.800672">
        <ele>300.250890</ele>
        <time>2021-11-07T11:06:18.258Z</time>
      </trkpt>
      <trkpt lat="47.548569" lon="7.800838">
        <ele>300.240564</ele>
        <time>2021-11-07T11:06:20.502Z</time>
      </trkpt>
      <trkpt lat="47.548576" lon="7.800968">
        <ele>300.232478</ele>
        <time>2021-11-07T11:06:22.277Z</time>
      </trkpt>
      <trkpt lat="47.548596" lon="7.801213">
        <ele>300.217176</ele>
        <time>2021-11-07T11:06:25.657Z</time>
      </trkpt>
      <trkpt lat="47.548607" lon="7.801690">
        <ele>300.187582</ele>
        <time>2021-11-07T11:06:32.157Z</time>
      </trkpt>
      <trkpt lat="47.548626" lon="7.802129">
        <ele>300.118105</ele>
        <time>2021-11-07T11:06:38.076Z</time>
      </trkpt>
      <trkpt lat="47.548877" lon="7.802168">
        <ele>300.056568</ele>
        <time>2021-11-07T11:06:43.068Z</time>
      </trkpt>
      <trkpt lat="47.549410" lon="7.802226">
        <ele>299.926257</ele>
        <time>2021-11-07T11:06:53.482Z</time>
      </trkpt>
      <trkpt lat="47.549481" lon="7.802234">
        <ele>299.908895</ele>
        <time>2021-11-07T11:06:54.820Z</time>
      </trkpt>
      <trkpt lat="47.549879" lon="7.802247">
        <ele>299.811827</ele>
        <time>2021-11-07T11:07:02.285Z</time>
      </trkpt>
      <trkpt lat="47.550146" lon="7.802262">
        <ele>299.746588</ele>
        <time>2021-11-07T11:07:07.360Z</time>
      </trkpt>
      <trkpt lat="47.550134" lon="7.803051">
        <ele>299.596392</ele>
        <time>2021-11-07T11:07:17.608Z</time>
      </trkpt>
      <trkpt lat="47.550196" lon="7.803120">
        <ele>299.574527</ele>
        <time>2021-11-07T11:07:19.059Z</time>
      </trkpt>
      <trkpt lat="47.550981" lon="7.803132">
        <ele>299.353170</ele>
        <time>2021-11-07T11:07:33.707Z</time>
      </trkpt>
      <trkpt lat="47.551163" lon="7.803129">
        <ele>299.301848</ele>
        <time>2021-11-07T11:07:37.124Z</time>
      </trkpt>
      <trkpt lat="47.551505" lon="7.803153">
        <ele>299.319340</ele>
        <time>2021-11-07T11:07:43.805Z</time>
      </trkpt>
      <trkpt lat="47.551598" lon="7.803160">
        <ele>299.379162</ele>
        <time>2021-11-07T11:07:45.689Z</time>
      </trkpt>
      <trkpt lat="47.551666" lon="7.803144">
        <ele>299.423393</ele>
        <time>2021-11-07T11:07:50.433Z</time>
      </trkpt>
      <trkpt lat="47.551732" lon="7.803125">
        <ele>299.466586</ele>
        <time>2021-11-07T11:07:55.100Z</time>
      </trkpt>
      <trkpt lat="47.551744" lon="7.803277">
        <ele>299.532940</ele>
        <time>2021-11-07T11:07:56.813Z</time>
      </trkpt>
      <trkpt lat="47.551751" lon="7.803369">
        <ele>299.573082</ele>
        <time>2021-11-07T11:07:57.872Z</time>
      </trkpt>
      <trkpt lat="47.551692" lon="7.803510">
        <ele>299.645013</ele>
        <time>2021-11-07T11:08:00.447Z</time>
      </trkpt>
      <trkpt lat="47.551726" lon="7.804054">
        <ele>299.881891</ele>
        <time>2021-11-07T11:08:09.519Z</time>
      </trkpt>
      <trkpt lat="47.551741" lon="7.804294">
        <ele>299.986396</ele>
        <time>2021-11-07T11:08:13.497Z</time>
      </trkpt>
      <trkpt lat="47.551744" lon="7.804473">
        <ele>300.064031</ele>
        <time>2021-11-07T11:08:15.983Z</time>
      </trkpt>
      <trkpt lat="47.551731" lon="7.804667">
        <ele>300.148559</ele>
        <time>2021-11-07T11:08:19.976Z</time>
      </trkpt>
      <trkpt lat="47.551709" lon="7.805000">
        <ele>300.293632</ele>
        <time>2021-11-07T11:08:24.448Z</time>
      </trkpt>
      <trkpt lat="47.551681" lon="7.805477">
        <ele>300.449204</ele>
        <time>2021-11-07T11:08:32.175Z</time>
      </trkpt>
      <trkpt lat="47.551671" lon="7.806117">
        <ele>300.590103</ele>
        <time>2021-11-07T11:08:42.263Z</time>
      </trkpt>
      <trkpt lat="47.551651" lon="7.806246">
        <ele>300.619234</ele>
        <time>2021-11-07T11:08:45.167Z</time>
      </trkpt>
      <trkpt lat="47.551895" lon="7.806278">
        <ele>300.699115</ele>
        <time>2021-11-07T11:08:48.698Z</time>
      </trkpt>
      <trkpt lat="47.552015" lon="7.806307">
        <ele>300.738764</ele>
        <time>2021-11-07T11:08:51.568Z</time>
      </trkpt>
      <trkpt lat="47.552068" lon="7.806445">
        <ele>300.773710</ele>
        <time>2021-11-07T11:08:53.025Z</time>
      </trkpt>
      <trkpt lat="47.552398" lon="7.808880">
        <ele>300.371418</ele>
        <time>2021-11-07T11:09:15.168Z</time>
      </trkpt>
      <trkpt lat="47.552566" lon="7.810386">
        <ele>299.745096</ele>
        <time>2021-11-07T11:09:28.179Z</time>
      </trkpt>
      <trkpt lat="47.552711" lon="7.812955">
        <ele>298.598746</ele>
        <time>2021-11-07T11:09:50.787Z</time>
      </trkpt>
      <trkpt lat="47.552844" lon="7.816432">
        <ele>297.493988</ele>
        <time>2021-11-07T11:10:21.280Z</time>
      </trkpt>
      <trkpt lat="47.552948" lon="7.819358">
        <ele>297.833104</ele>
        <time>2021-11-07T11:10:52.510Z</time>
      </trkpt>
      <trkpt lat="47.552896" lon="7.820699">
        <ele>298.300122</ele>
        <time>2021-11-07T11:11:08.594Z</time>
      </trkpt>
      <trkpt lat="47.552567" lon="7.824508">
        <ele>300.222580</ele>
        <time>2021-11-07T11:11:55.079Z</time>
      </trkpt>
      <trkpt lat="47.552491" lon="7.827227">
        <ele>301.784226</ele>
        <time>2021-11-07T11:12:26.819Z</time>
      </trkpt>
      <trkpt lat="47.552515" lon="7.828094">
        <ele>302.390726</ele>
        <time>2021-11-07T11:12:38.529Z</time>
      </trkpt>
      <trkpt lat="47.552477" lon="7.828294">
        <ele>302.535949</ele>
        <time>2021-11-07T11:12:41.146Z</time>
      </trkpt>
      <trkpt lat="47.552421" lon="7.828481">
        <ele>302.678942</ele>
        <time>2021-11-07T11:12:44.077Z</time>
      </trkpt>
      <trkpt lat="47.552404" lon="7.828582">
        <ele>302.771273</ele>
        <time>2021-11-07T11:12:45.762Z</time>
      </trkpt>
      <trkpt lat="47.552416" lon="7.828822">
        <ele>303.148569</ele>
        <time>2021-11-07T11:12:48.996Z</time>
      </trkpt>
      <trkpt lat="47.552554" lon="7.829266">
        <ele>303.914925</ele>
        <time>2021-11-07T11:12:56.347Z</time>
      </trkpt>
      <trkpt lat="47.552645" lon="7.830686">
        <ele>306.151166</ele>
        <time>2021-11-07T11:13:19.653Z</time>
      </trkpt>
      <trkpt lat="47.552690" lon="7.832598">
        <ele>309.795022</ele>
        <time>2021-11-07T11:13:55.130Z</time>
      </trkpt>
      <trkpt lat="47.552616" lon="7.832891">
        <ele>310.426817</ele>
        <time>2021-11-07T11:14:00.494Z</time>
      </trkpt>
      <trkpt lat="47.552556" lon="7.832977">
        <ele>310.676614</ele>
        <time>2021-11-07T11:14:03.225Z</time>
      </trkpt>
      <trkpt lat="47.552511" lon="7.833072">
        <ele>310.911006</ele>
        <time>2021-11-07T11:14:05.251Z</time>
      </trkpt>
      <trkpt lat="47.552467" lon="7.833198">
        <ele>311.197511</ele>
        <time>2021-11-07T11:14:07.653Z</time>
      </trkpt>
      <trkpt lat="47.552452" lon="7.833284">
        <ele>311.376898</ele>
        <time>2021-11-07T11:14:09.264Z</time>
      </trkpt>
      <trkpt lat="47.552696" lon="7.833789">
        <ele>312.542060</ele>
        <time>2021-11-07T11:14:20.295Z</time>
      </trkpt>
      <trkpt lat="47.552700" lon="7.833938">
        <ele>312.763121</ele>
        <time>2021-11-07T11:14:23.239Z</time>
      </trkpt>
      <trkpt lat="47.552714" lon="7.835010">
        <ele>314.352613</ele>
        <time>2021-11-07T11:14:41.716Z</time>
      </trkpt>
      <trkpt lat="47.552719" lon="7.836790">
        <ele>316.748442</ele>
        <time>2021-11-07T11:15:07.000Z</time>
      </trkpt>
      <trkpt lat="47.552697" lon="7.838068">
        <ele>318.025186</ele>
        <time>2021-11-07T11:15:24.663Z</time>
      </trkpt>
      <trkpt lat="47.552736" lon="7.838578">
        <ele>318.537778</ele>
        <time>2021-11-07T11:15:31.786Z</time>
      </trkpt>
      <trkpt lat="47.552802" lon="7.839009">
        <ele>318.985946</ele>
        <time>2021-11-07T11:15:37.990Z</time>
      </trkpt>
      <trkpt lat="47.552847" lon="7.839180">
        <ele>319.186833</ele>
        <time>2021-11-07T11:15:40.563Z</time>
      </trkpt>
      <trkpt lat="47.552939" lon="7.839526">
        <ele>319.593867</ele>
        <time>2021-11-07T11:15:45.782Z</time>
      </trkpt>
      <trkpt lat="47.553231" lon="7.841529">
        <ele>321.833105</ele>
        <time>2021-11-07T11:16:15.915Z</time>
      </trkpt>
      <trkpt lat="47.553216" lon="7.841849">
        <ele>322.072819</ele>
        <time>2021-11-07T11:16:20.431Z</time>
      </trkpt>
      <trkpt lat="47.553123" lon="7.842222">
        <ele>322.369976</ele>
        <time>2021-11-07T11:16:25.661Z</time>
      </trkpt>
      <trkpt lat="47.553133" lon="7.842431">
        <ele>322.526555</ele>
        <time>2021-11-07T11:16:28.790Z</time>
      </trkpt>
      <trkpt lat="47.552833" lon="7.842495">
        <ele>322.862162</ele>
        <time>2021-11-07T11:16:36.099Z</time>
      </trkpt>
      <trkpt lat="47.552380" lon="7.842592">
        <ele>323.368967</ele>
        <time>2021-11-07T11:16:47.148Z</time>
      </trkpt>
      <trkpt lat="47.551922" lon="7.842704">
        <ele>323.867103</ele>
        <time>2021-11-07T11:16:57.714Z</time>
      </trkpt>
      <trkpt lat="47.551668" lon="7.842770">
        <ele>324.084141</ele>
        <time>2021-11-07T11:17:03.672Z</time>
      </trkpt>
      <trkpt lat="47.551454" lon="7.842815">
        <ele>324.266056</ele>
        <time>2021-11-07T11:17:08.360Z</time>
      </trkpt>
      <trkpt lat="47.551344" lon="7.844621">
        <ele>325.296113</ele>
        <time>2021-11-07T11:17:30.874Z</time>
      </trkpt>
      <trkpt lat="47.551205" lon="7.846694">
        <ele>327.172520</ele>
        <time>2021-11-07T11:17:58.861Z</time>
      </trkpt>
      <trkpt lat="47.551184" lon="7.847206">
        <ele>327.639680</ele>
        <time>2021-11-07T11:18:06.247Z</time>
      </trkpt>
      <trkpt lat="47.551196" lon="7.847517">
        <ele>327.947720</ele>
        <time>2021-11-07T11:18:10.811Z</time>
      </trkpt>
      <trkpt lat="47.551669" lon="7.848083">
        <ele>328.888676</ele>
        <time>2021-11-07T11:18:23.896Z</time>
      </trkpt>
      <trkpt lat="47.551242" lon="7.848702">
        <ele>329.813210</ele>
        <time>2021-11-07T11:18:36.480Z</time>
      </trkpt>
      <trkpt lat="47.550975" lon="7.849066">
        <ele>330.374738</ele>
        <time>2021-11-07T11:18:43.796Z</time>
      </trkpt>
      <trkpt lat="47.550810" lon="7.849346">
        <ele>330.699984</ele>
        <time>2021-11-07T11:18:50.189Z</time>
      </trkpt>
      <trkpt lat="47.550488" lon="7.850081">
        <ele>331.355027</ele>
        <time>2021-11-07T11:19:05.655Z</time>
      </trkpt>
      <trkpt lat="47.550333" lon="7.850434">
        <ele>331.669839</ele>
        <time>2021-11-07T11:19:12.985Z</time>
      </trkpt>
      <trkpt lat="47.550009" lon="7.851173">
        <ele>332.328601</ele>
        <time>2021-11-07T11:19:27.581Z</time>
      </trkpt>
      <trkpt lat="47.549652" lon="7.851969">
        <ele>332.494144</ele>
        <time>2021-11-07T11:19:41.460Z</time>
      </trkpt>
      <trkpt lat="47.549535" lon="7.852225">
        <ele>332.476291</ele>
        <time>2021-11-07T11:19:45.518Z</time>
      </trkpt>
      <trkpt lat="47.549285" lon="7.852784">
        <ele>332.437569</ele>
        <time>2021-11-07T11:19:54.151Z</time>
      </trkpt>
      <trkpt lat="47.549285" lon="7.852783">
        <ele>332.437511</ele>
        <time>2021-11-07T11:19:54.162Z</time>
      </trkpt>
      <trkpt lat="47.549285" lon="7.852784">
        <ele>332.437453</ele>
        <time>2021-11-07T11:19:54.176Z</time>
      </trkpt>
      <trkpt lat="47.549708" lon="7.853279">
        <ele>332.391337</ele>
        <time>2021-11-07T11:20:04.577Z</time>
      </trkpt>
      <trkpt lat="47.550221" lon="7.853833">
        <ele>332.102447</ele>
        <time>2021-11-07T11:20:16.498Z</time>
      </trkpt>
      <trkpt lat="47.549883" lon="7.854434">
        <ele>331.808503</ele>
        <time>2021-11-07T11:20:23.175Z</time>
      </trkpt>
      <trkpt lat="47.549566" lon="7.855225">
        <ele>331.462841</ele>
        <time>2021-11-07T11:20:34.319Z</time>
      </trkpt>
      <trkpt lat="47.549362" lon="7.855774">
        <ele>331.329825</ele>
        <time>2021-11-07T11:20:42.241Z</time>
      </trkpt>
      <trkpt lat="47.548887" lon="7.857308">
        <ele>331.126146</ele>
        <time>2021-11-07T11:21:04.349Z</time>
      </trkpt>
      <trkpt lat="47.548743" lon="7.857692">
        <ele>331.073132</ele>
        <time>2021-11-07T11:21:10.321Z</time>
      </trkpt>
      <trkpt lat="47.548701" lon="7.857893">
        <ele>331.095043</ele>
        <time>2021-11-07T11:21:13.292Z</time>
      </trkpt>
      <trkpt lat="47.548686" lon="7.857973">
        <ele>331.137868</ele>
        <time>2021-11-07T11:21:14.416Z</time>
      </trkpt>
      <trkpt lat="47.548611" lon="7.858381">
        <ele>331.355973</ele>
        <time>2021-11-07T11:21:20.630Z</time>
      </trkpt>
      <trkpt lat="47.548334" lon="7.859801">
        <ele>332.118364</ele>
        <time>2021-11-07T11:21:43.667Z</time>
      </trkpt>
      <trkpt lat="47.548049" lon="7.860929">
        <ele>333.105742</ele>
        <time>2021-11-07T11:22:04.685Z</time>
      </trkpt>
      <trkpt lat="47.547930" lon="7.861711">
        <ele>334.010053</ele>
        <time>2021-11-07T11:22:19.449Z</time>
      </trkpt>
      <trkpt lat="47.547568" lon="7.863151">
        <ele>335.437278</ele>
        <time>2021-11-07T11:22:48.183Z</time>
      </trkpt>
      <trkpt lat="47.547320" lon="7.863864">
        <ele>335.437278</ele>
        <time>2021-11-07T11:23:02.448Z</time>
      </trkpt>
      <trkpt lat="47.547167" lon="7.864112">
        <ele>335.437278</ele>
        <time>2021-11-07T11:23:08.282Z</time>
      </trkpt>
    </trkseg>
  </trk>
</gpx>